<?xml version="1.0" encoding="UTF-8" standalone="no" ?>
<gpx xmlns="http://www.topografix.com/GPX/1/1" xmlns:xsi="http://www.w3.org/2001/XMLSchema-instance" xsi:schemaLocation="http://www.topografix.com/GPX/1/1 http://www.topografix.com/GPX/1/1/gpx.xsd" version="1.1" creator="VisuGPX - https://www.visugpx.com">
  <metadata>
    <name>La Séoube - Payolle</name>
    <desc><![CDATA[une belle randonnée en raquettes, sans risque (avalanches) et sans difficulté. ]]></desc>
  </metadata>
  <trk>
    <name><![CDATA[seoube payolle: 17 JAN 2017 09:57]]></name>
    <trkseg>
      <trkpt lat="42.96427" lon="0.24682">
        <ele>967.22</ele>
        <time>2017-01-17T08:57:02Z</time>
      </trkpt>
      <trkpt lat="42.96425" lon="0.24689">
        <ele>967.7</ele>
        <time>2017-01-17T08:57:43Z</time>
      </trkpt>
      <trkpt lat="42.96421" lon="0.24694">
        <ele>966.26</ele>
        <time>2017-01-17T08:58:43Z</time>
      </trkpt>
      <trkpt lat="42.96414" lon="0.24698">
        <ele>965.78</ele>
        <time>2017-01-17T08:59:52Z</time>
      </trkpt>
      <trkpt lat="42.96408" lon="0.24707">
        <ele>965.78</ele>
        <time>2017-01-17T09:00:01Z</time>
      </trkpt>
      <trkpt lat="42.96403" lon="0.24715">
        <ele>966.26</ele>
        <time>2017-01-17T09:01:27Z</time>
      </trkpt>
      <trkpt lat="42.96398" lon="0.24727">
        <ele>966.74</ele>
        <time>2017-01-17T09:01:38Z</time>
      </trkpt>
      <trkpt lat="42.96393" lon="0.24739">
        <ele>967.22</ele>
        <time>2017-01-17T09:01:47Z</time>
      </trkpt>
      <trkpt lat="42.96388" lon="0.2475">
        <ele>967.22</ele>
        <time>2017-01-17T09:01:56Z</time>
      </trkpt>
      <trkpt lat="42.96382" lon="0.2476">
        <ele>967.7</ele>
        <time>2017-01-17T09:02:05Z</time>
      </trkpt>
      <trkpt lat="42.96376" lon="0.24754">
        <ele>967.7</ele>
        <time>2017-01-17T09:02:21Z</time>
      </trkpt>
      <trkpt lat="42.96369" lon="0.2475">
        <ele>968.18</ele>
        <time>2017-01-17T09:02:49Z</time>
      </trkpt>
      <trkpt lat="42.9636" lon="0.2475">
        <ele>969.15</ele>
        <time>2017-01-17T09:03:00Z</time>
      </trkpt>
      <trkpt lat="42.96349" lon="0.24746">
        <ele>969.63</ele>
        <time>2017-01-17T09:03:11Z</time>
      </trkpt>
      <trkpt lat="42.96338" lon="0.24744">
        <ele>970.59</ele>
        <time>2017-01-17T09:03:22Z</time>
      </trkpt>
      <trkpt lat="42.96328" lon="0.24745">
        <ele>971.07</ele>
        <time>2017-01-17T09:03:32Z</time>
      </trkpt>
      <trkpt lat="42.96319" lon="0.24746">
        <ele>971.55</ele>
        <time>2017-01-17T09:03:41Z</time>
      </trkpt>
      <trkpt lat="42.96309" lon="0.24745">
        <ele>972.51</ele>
        <time>2017-01-17T09:03:51Z</time>
      </trkpt>
      <trkpt lat="42.96299" lon="0.24746">
        <ele>973.47</ele>
        <time>2017-01-17T09:04:01Z</time>
      </trkpt>
      <trkpt lat="42.9629" lon="0.24746">
        <ele>974.43</ele>
        <time>2017-01-17T09:04:11Z</time>
      </trkpt>
      <trkpt lat="42.9628" lon="0.24746">
        <ele>975.39</ele>
        <time>2017-01-17T09:04:22Z</time>
      </trkpt>
      <trkpt lat="42.9627" lon="0.24748">
        <ele>977.32</ele>
        <time>2017-01-17T09:04:34Z</time>
      </trkpt>
      <trkpt lat="42.96264" lon="0.24748">
        <ele>976.36</ele>
        <time>2017-01-17T09:09:18Z</time>
      </trkpt>
      <trkpt lat="42.96262" lon="0.24748">
        <ele>976.36</ele>
        <time>2017-01-17T09:11:51Z</time>
      </trkpt>
      <trkpt lat="42.96259" lon="0.24745">
        <ele>977.8</ele>
        <time>2017-01-17T09:12:46Z</time>
      </trkpt>
      <trkpt lat="42.96248" lon="0.24745">
        <ele>978.76</ele>
        <time>2017-01-17T09:13:02Z</time>
      </trkpt>
      <trkpt lat="42.96238" lon="0.24742">
        <ele>979.72</ele>
        <time>2017-01-17T09:13:16Z</time>
      </trkpt>
      <trkpt lat="42.96229" lon="0.24738">
        <ele>980.68</ele>
        <time>2017-01-17T09:13:31Z</time>
      </trkpt>
      <trkpt lat="42.96221" lon="0.24737">
        <ele>981.64</ele>
        <time>2017-01-17T09:13:47Z</time>
      </trkpt>
      <trkpt lat="42.96213" lon="0.24737">
        <ele>982.6</ele>
        <time>2017-01-17T09:14:04Z</time>
      </trkpt>
      <trkpt lat="42.96206" lon="0.24746">
        <ele>984.53</ele>
        <time>2017-01-17T09:14:27Z</time>
      </trkpt>
      <trkpt lat="42.96213" lon="0.24754">
        <ele>985.49</ele>
        <time>2017-01-17T09:14:43Z</time>
      </trkpt>
      <trkpt lat="42.96223" lon="0.24759">
        <ele>986.45</ele>
        <time>2017-01-17T09:14:59Z</time>
      </trkpt>
      <trkpt lat="42.96233" lon="0.24763">
        <ele>985.97</ele>
        <time>2017-01-17T09:15:13Z</time>
      </trkpt>
      <trkpt lat="42.9624" lon="0.24773">
        <ele>985.01</ele>
        <time>2017-01-17T09:15:27Z</time>
      </trkpt>
      <trkpt lat="42.96244" lon="0.24778">
        <ele>984.53</ele>
        <time>2017-01-17T09:16:01Z</time>
      </trkpt>
      <trkpt lat="42.96236" lon="0.24793">
        <ele>985.97</ele>
        <time>2017-01-17T09:16:32Z</time>
      </trkpt>
      <trkpt lat="42.96229" lon="0.24804">
        <ele>987.89</ele>
        <time>2017-01-17T09:16:47Z</time>
      </trkpt>
      <trkpt lat="42.96222" lon="0.24807">
        <ele>989.81</ele>
        <time>2017-01-17T09:17:02Z</time>
      </trkpt>
      <trkpt lat="42.96216" lon="0.24801">
        <ele>991.26</ele>
        <time>2017-01-17T09:17:39Z</time>
      </trkpt>
      <trkpt lat="42.96207" lon="0.24795">
        <ele>992.7</ele>
        <time>2017-01-17T09:17:56Z</time>
      </trkpt>
      <trkpt lat="42.96198" lon="0.24792">
        <ele>994.14</ele>
        <time>2017-01-17T09:18:14Z</time>
      </trkpt>
      <trkpt lat="42.96187" lon="0.24794">
        <ele>996.54</ele>
        <time>2017-01-17T09:18:34Z</time>
      </trkpt>
      <trkpt lat="42.96176" lon="0.24795">
        <ele>997.99</ele>
        <time>2017-01-17T09:18:53Z</time>
      </trkpt>
      <trkpt lat="42.96165" lon="0.24796">
        <ele>1000.87</ele>
        <time>2017-01-17T09:19:15Z</time>
      </trkpt>
      <trkpt lat="42.96152" lon="0.24805">
        <ele>1003.75</ele>
        <time>2017-01-17T09:19:40Z</time>
      </trkpt>
      <trkpt lat="42.96148" lon="0.24819">
        <ele>1006.16</ele>
        <time>2017-01-17T09:20:01Z</time>
      </trkpt>
      <trkpt lat="42.96133" lon="0.24824">
        <ele>1009.52</ele>
        <time>2017-01-17T09:20:29Z</time>
      </trkpt>
      <trkpt lat="42.96122" lon="0.24827">
        <ele>1011.44</ele>
        <time>2017-01-17T09:20:48Z</time>
      </trkpt>
      <trkpt lat="42.9611" lon="0.24832">
        <ele>1015.77</ele>
        <time>2017-01-17T09:21:22Z</time>
      </trkpt>
      <trkpt lat="42.96097" lon="0.24842">
        <ele>1020.1</ele>
        <time>2017-01-17T09:21:57Z</time>
      </trkpt>
      <trkpt lat="42.96082" lon="0.24855">
        <ele>1026.34</ele>
        <time>2017-01-17T09:22:45Z</time>
      </trkpt>
      <trkpt lat="42.96075" lon="0.24856">
        <ele>1028.75</ele>
        <time>2017-01-17T09:24:23Z</time>
      </trkpt>
      <trkpt lat="42.96059" lon="0.24864">
        <ele>1033.55</ele>
        <time>2017-01-17T09:24:59Z</time>
      </trkpt>
      <trkpt lat="42.96046" lon="0.24867">
        <ele>1036.92</ele>
        <time>2017-01-17T09:25:27Z</time>
      </trkpt>
      <trkpt lat="42.96034" lon="0.24868">
        <ele>1039.8</ele>
        <time>2017-01-17T09:25:55Z</time>
      </trkpt>
      <trkpt lat="42.96019" lon="0.24868">
        <ele>1044.13</ele>
        <time>2017-01-17T09:26:33Z</time>
      </trkpt>
      <trkpt lat="42.96007" lon="0.24869">
        <ele>1047.01</ele>
        <time>2017-01-17T09:26:57Z</time>
      </trkpt>
      <trkpt lat="42.95996" lon="0.24871">
        <ele>1049.9</ele>
        <time>2017-01-17T09:27:25Z</time>
      </trkpt>
      <trkpt lat="42.95986" lon="0.2487">
        <ele>1052.3</ele>
        <time>2017-01-17T09:27:47Z</time>
      </trkpt>
      <trkpt lat="42.95975" lon="0.2487">
        <ele>1055.18</ele>
        <time>2017-01-17T09:28:14Z</time>
      </trkpt>
      <trkpt lat="42.95967" lon="0.24869">
        <ele>1057.11</ele>
        <time>2017-01-17T09:28:31Z</time>
      </trkpt>
      <trkpt lat="42.95958" lon="0.2487">
        <ele>1059.03</ele>
        <time>2017-01-17T09:28:54Z</time>
      </trkpt>
      <trkpt lat="42.95947" lon="0.24872">
        <ele>1062.39</ele>
        <time>2017-01-17T09:29:24Z</time>
      </trkpt>
      <trkpt lat="42.95939" lon="0.2487">
        <ele>1062.87</ele>
        <time>2017-01-17T09:29:57Z</time>
      </trkpt>
      <trkpt lat="42.9593" lon="0.24875">
        <ele>1066.24</ele>
        <time>2017-01-17T09:30:19Z</time>
      </trkpt>
      <trkpt lat="42.95923" lon="0.24876">
        <ele>1067.68</ele>
        <time>2017-01-17T09:30:33Z</time>
      </trkpt>
      <trkpt lat="42.95914" lon="0.24879">
        <ele>1069.6</ele>
        <time>2017-01-17T09:30:47Z</time>
      </trkpt>
      <trkpt lat="42.95904" lon="0.24879">
        <ele>1071.53</ele>
        <time>2017-01-17T09:31:01Z</time>
      </trkpt>
      <trkpt lat="42.95896" lon="0.24881">
        <ele>1073.45</ele>
        <time>2017-01-17T09:31:16Z</time>
      </trkpt>
      <trkpt lat="42.95884" lon="0.24882">
        <ele>1075.37</ele>
        <time>2017-01-17T09:31:40Z</time>
      </trkpt>
      <trkpt lat="42.95873" lon="0.24884">
        <ele>1078.74</ele>
        <time>2017-01-17T09:32:19Z</time>
      </trkpt>
      <trkpt lat="42.9586" lon="0.24888">
        <ele>1081.62</ele>
        <time>2017-01-17T09:32:54Z</time>
      </trkpt>
      <trkpt lat="42.9585" lon="0.24891">
        <ele>1084.5</ele>
        <time>2017-01-17T09:33:20Z</time>
      </trkpt>
      <trkpt lat="42.9584" lon="0.2489">
        <ele>1085.95</ele>
        <time>2017-01-17T09:33:44Z</time>
      </trkpt>
      <trkpt lat="42.95829" lon="0.24894">
        <ele>1089.31</ele>
        <time>2017-01-17T09:34:06Z</time>
      </trkpt>
      <trkpt lat="42.95819" lon="0.24891">
        <ele>1090.75</ele>
        <time>2017-01-17T09:34:21Z</time>
      </trkpt>
      <trkpt lat="42.95813" lon="0.24895">
        <ele>1092.2</ele>
        <time>2017-01-17T09:34:41Z</time>
      </trkpt>
      <trkpt lat="42.95813" lon="0.24894">
        <ele>1092.2</ele>
        <time>2017-01-17T09:37:29Z</time>
      </trkpt>
      <trkpt lat="42.95802" lon="0.24896">
        <ele>1094.12</ele>
        <time>2017-01-17T09:39:51Z</time>
      </trkpt>
      <trkpt lat="42.95791" lon="0.24892">
        <ele>1096.04</ele>
        <time>2017-01-17T09:40:14Z</time>
      </trkpt>
      <trkpt lat="42.9579" lon="0.24888">
        <ele>1096.52</ele>
        <time>2017-01-17T09:41:25Z</time>
      </trkpt>
      <trkpt lat="42.95777" lon="0.24891">
        <ele>1098.92</ele>
        <time>2017-01-17T09:42:01Z</time>
      </trkpt>
      <trkpt lat="42.95766" lon="0.24887">
        <ele>1100.85</ele>
        <time>2017-01-17T09:42:18Z</time>
      </trkpt>
      <trkpt lat="42.95756" lon="0.24885">
        <ele>1103.25</ele>
        <time>2017-01-17T09:42:41Z</time>
      </trkpt>
      <trkpt lat="42.95744" lon="0.24883">
        <ele>1105.17</ele>
        <time>2017-01-17T09:43:02Z</time>
      </trkpt>
      <trkpt lat="42.95736" lon="0.2488">
        <ele>1107.1</ele>
        <time>2017-01-17T09:43:19Z</time>
      </trkpt>
      <trkpt lat="42.95725" lon="0.2488">
        <ele>1109.5</ele>
        <time>2017-01-17T09:43:39Z</time>
      </trkpt>
      <trkpt lat="42.95716" lon="0.24882">
        <ele>1111.42</ele>
        <time>2017-01-17T09:43:58Z</time>
      </trkpt>
      <trkpt lat="42.95709" lon="0.2488">
        <ele>1112.86</ele>
        <time>2017-01-17T09:44:19Z</time>
      </trkpt>
      <trkpt lat="42.95699" lon="0.24879">
        <ele>1114.79</ele>
        <time>2017-01-17T09:44:40Z</time>
      </trkpt>
      <trkpt lat="42.95689" lon="0.24878">
        <ele>1116.71</ele>
        <time>2017-01-17T09:45:06Z</time>
      </trkpt>
      <trkpt lat="42.95681" lon="0.24876">
        <ele>1118.63</ele>
        <time>2017-01-17T09:45:26Z</time>
      </trkpt>
      <trkpt lat="42.9567" lon="0.24874">
        <ele>1120.07</ele>
        <time>2017-01-17T09:45:47Z</time>
      </trkpt>
      <trkpt lat="42.95661" lon="0.24871">
        <ele>1121.52</ele>
        <time>2017-01-17T09:46:01Z</time>
      </trkpt>
      <trkpt lat="42.95661" lon="0.24867">
        <ele>1122.48</ele>
        <time>2017-01-17T09:46:30Z</time>
      </trkpt>
      <trkpt lat="42.95654" lon="0.24869">
        <ele>1122</ele>
        <time>2017-01-17T09:47:34Z</time>
      </trkpt>
      <trkpt lat="42.95643" lon="0.24868">
        <ele>1123.44</ele>
        <time>2017-01-17T09:47:47Z</time>
      </trkpt>
      <trkpt lat="42.95635" lon="0.24865">
        <ele>1124.88</ele>
        <time>2017-01-17T09:48:00Z</time>
      </trkpt>
      <trkpt lat="42.95626" lon="0.24864">
        <ele>1126.8</ele>
        <time>2017-01-17T09:48:14Z</time>
      </trkpt>
      <trkpt lat="42.95617" lon="0.24862">
        <ele>1128.73</ele>
        <time>2017-01-17T09:48:28Z</time>
      </trkpt>
      <trkpt lat="42.95607" lon="0.2486">
        <ele>1130.17</ele>
        <time>2017-01-17T09:48:41Z</time>
      </trkpt>
      <trkpt lat="42.95598" lon="0.2486">
        <ele>1131.61</ele>
        <time>2017-01-17T09:48:55Z</time>
      </trkpt>
      <trkpt lat="42.95591" lon="0.2486">
        <ele>1132.57</ele>
        <time>2017-01-17T09:50:22Z</time>
      </trkpt>
      <trkpt lat="42.95582" lon="0.2486">
        <ele>1134.01</ele>
        <time>2017-01-17T09:50:34Z</time>
      </trkpt>
      <trkpt lat="42.95574" lon="0.24855">
        <ele>1135.45</ele>
        <time>2017-01-17T09:50:46Z</time>
      </trkpt>
      <trkpt lat="42.95567" lon="0.24849">
        <ele>1137.38</ele>
        <time>2017-01-17T09:51:00Z</time>
      </trkpt>
      <trkpt lat="42.95561" lon="0.2484">
        <ele>1138.34</ele>
        <time>2017-01-17T09:51:13Z</time>
      </trkpt>
      <trkpt lat="42.95551" lon="0.24836">
        <ele>1139.78</ele>
        <time>2017-01-17T09:51:26Z</time>
      </trkpt>
      <trkpt lat="42.9554" lon="0.24833">
        <ele>1141.7</ele>
        <time>2017-01-17T09:51:42Z</time>
      </trkpt>
      <trkpt lat="42.95533" lon="0.24826">
        <ele>1143.14</ele>
        <time>2017-01-17T09:51:57Z</time>
      </trkpt>
      <trkpt lat="42.95524" lon="0.24823">
        <ele>1144.11</ele>
        <time>2017-01-17T09:52:10Z</time>
      </trkpt>
      <trkpt lat="42.95516" lon="0.24816">
        <ele>1146.03</ele>
        <time>2017-01-17T09:52:25Z</time>
      </trkpt>
      <trkpt lat="42.95509" lon="0.2481">
        <ele>1147.47</ele>
        <time>2017-01-17T09:52:39Z</time>
      </trkpt>
      <trkpt lat="42.95501" lon="0.24806">
        <ele>1148.91</ele>
        <time>2017-01-17T09:52:52Z</time>
      </trkpt>
      <trkpt lat="42.95493" lon="0.24801">
        <ele>1150.84</ele>
        <time>2017-01-17T09:53:06Z</time>
      </trkpt>
      <trkpt lat="42.95484" lon="0.24797">
        <ele>1152.28</ele>
        <time>2017-01-17T09:53:20Z</time>
      </trkpt>
      <trkpt lat="42.95476" lon="0.24791">
        <ele>1153.72</ele>
        <time>2017-01-17T09:53:36Z</time>
      </trkpt>
      <trkpt lat="42.95466" lon="0.24786">
        <ele>1156.12</ele>
        <time>2017-01-17T09:53:51Z</time>
      </trkpt>
      <trkpt lat="42.95458" lon="0.2478">
        <ele>1158.05</ele>
        <time>2017-01-17T09:54:05Z</time>
      </trkpt>
      <trkpt lat="42.95449" lon="0.24774">
        <ele>1159.97</ele>
        <time>2017-01-17T09:54:19Z</time>
      </trkpt>
      <trkpt lat="42.95441" lon="0.24769">
        <ele>1161.41</ele>
        <time>2017-01-17T09:54:36Z</time>
      </trkpt>
      <trkpt lat="42.95432" lon="0.24765">
        <ele>1162.85</ele>
        <time>2017-01-17T09:54:49Z</time>
      </trkpt>
      <trkpt lat="42.95422" lon="0.2476">
        <ele>1164.29</ele>
        <time>2017-01-17T09:55:04Z</time>
      </trkpt>
      <trkpt lat="42.95414" lon="0.24754">
        <ele>1165.74</ele>
        <time>2017-01-17T09:55:19Z</time>
      </trkpt>
      <trkpt lat="42.95405" lon="0.24748">
        <ele>1167.66</ele>
        <time>2017-01-17T09:55:34Z</time>
      </trkpt>
      <trkpt lat="42.95396" lon="0.24742">
        <ele>1168.62</ele>
        <time>2017-01-17T09:55:48Z</time>
      </trkpt>
      <trkpt lat="42.95387" lon="0.24737">
        <ele>1170.06</ele>
        <time>2017-01-17T09:56:02Z</time>
      </trkpt>
      <trkpt lat="42.95377" lon="0.24732">
        <ele>1171.5</ele>
        <time>2017-01-17T09:56:16Z</time>
      </trkpt>
      <trkpt lat="42.95369" lon="0.24726">
        <ele>1173.43</ele>
        <time>2017-01-17T09:56:32Z</time>
      </trkpt>
      <trkpt lat="42.95361" lon="0.24721">
        <ele>1174.87</ele>
        <time>2017-01-17T09:56:46Z</time>
      </trkpt>
      <trkpt lat="42.95351" lon="0.24723">
        <ele>1176.31</ele>
        <time>2017-01-17T09:57:02Z</time>
      </trkpt>
      <trkpt lat="42.95343" lon="0.24717">
        <ele>1177.27</ele>
        <time>2017-01-17T09:57:13Z</time>
      </trkpt>
      <trkpt lat="42.95336" lon="0.24709">
        <ele>1178.71</ele>
        <time>2017-01-17T09:57:25Z</time>
      </trkpt>
      <trkpt lat="42.95329" lon="0.24701">
        <ele>1179.67</ele>
        <time>2017-01-17T09:57:37Z</time>
      </trkpt>
      <trkpt lat="42.95322" lon="0.24691">
        <ele>1180.64</ele>
        <time>2017-01-17T09:57:49Z</time>
      </trkpt>
      <trkpt lat="42.95319" lon="0.24678">
        <ele>1181.12</ele>
        <time>2017-01-17T09:58:03Z</time>
      </trkpt>
      <trkpt lat="42.95311" lon="0.24669">
        <ele>1182.08</ele>
        <time>2017-01-17T09:58:17Z</time>
      </trkpt>
      <trkpt lat="42.95302" lon="0.24663">
        <ele>1182.56</ele>
        <time>2017-01-17T09:58:29Z</time>
      </trkpt>
      <trkpt lat="42.95294" lon="0.24656">
        <ele>1183.52</ele>
        <time>2017-01-17T09:58:41Z</time>
      </trkpt>
      <trkpt lat="42.95286" lon="0.24648">
        <ele>1184.48</ele>
        <time>2017-01-17T09:58:54Z</time>
      </trkpt>
      <trkpt lat="42.95279" lon="0.2464">
        <ele>1185.44</ele>
        <time>2017-01-17T09:59:06Z</time>
      </trkpt>
      <trkpt lat="42.95272" lon="0.24632">
        <ele>1185.92</ele>
        <time>2017-01-17T09:59:19Z</time>
      </trkpt>
      <trkpt lat="42.95266" lon="0.24624">
        <ele>1186.4</ele>
        <time>2017-01-17T09:59:32Z</time>
      </trkpt>
      <trkpt lat="42.9526" lon="0.24617">
        <ele>1186.88</ele>
        <time>2017-01-17T09:59:53Z</time>
      </trkpt>
      <trkpt lat="42.95257" lon="0.24608">
        <ele>1187.37</ele>
        <time>2017-01-17T10:00:41Z</time>
      </trkpt>
      <trkpt lat="42.95249" lon="0.246">
        <ele>1187.37</ele>
        <time>2017-01-17T10:00:57Z</time>
      </trkpt>
      <trkpt lat="42.9524" lon="0.24594">
        <ele>1187.85</ele>
        <time>2017-01-17T10:01:17Z</time>
      </trkpt>
      <trkpt lat="42.95234" lon="0.24584">
        <ele>1188.33</ele>
        <time>2017-01-17T10:01:29Z</time>
      </trkpt>
      <trkpt lat="42.95227" lon="0.24574">
        <ele>1188.81</ele>
        <time>2017-01-17T10:01:40Z</time>
      </trkpt>
      <trkpt lat="42.95218" lon="0.24569">
        <ele>1189.77</ele>
        <time>2017-01-17T10:01:52Z</time>
      </trkpt>
      <trkpt lat="42.95211" lon="0.2456">
        <ele>1190.25</ele>
        <time>2017-01-17T10:02:06Z</time>
      </trkpt>
      <trkpt lat="42.95203" lon="0.24549">
        <ele>1190.73</ele>
        <time>2017-01-17T10:02:19Z</time>
      </trkpt>
      <trkpt lat="42.95195" lon="0.2454">
        <ele>1192.17</ele>
        <time>2017-01-17T10:02:35Z</time>
      </trkpt>
      <trkpt lat="42.95185" lon="0.24536">
        <ele>1192.65</ele>
        <time>2017-01-17T10:02:49Z</time>
      </trkpt>
      <trkpt lat="42.95176" lon="0.2453">
        <ele>1193.13</ele>
        <time>2017-01-17T10:03:04Z</time>
      </trkpt>
      <trkpt lat="42.95168" lon="0.24524">
        <ele>1194.09</ele>
        <time>2017-01-17T10:03:19Z</time>
      </trkpt>
      <trkpt lat="42.9516" lon="0.2452">
        <ele>1195.54</ele>
        <time>2017-01-17T10:03:33Z</time>
      </trkpt>
      <trkpt lat="42.95151" lon="0.24514">
        <ele>1196.5</ele>
        <time>2017-01-17T10:03:46Z</time>
      </trkpt>
      <trkpt lat="42.95141" lon="0.24508">
        <ele>1196.98</ele>
        <time>2017-01-17T10:04:02Z</time>
      </trkpt>
      <trkpt lat="42.95135" lon="0.24499">
        <ele>1198.42</ele>
        <time>2017-01-17T10:04:16Z</time>
      </trkpt>
      <trkpt lat="42.95128" lon="0.24489">
        <ele>1197.94</ele>
        <time>2017-01-17T10:04:28Z</time>
      </trkpt>
      <trkpt lat="42.9512" lon="0.2448">
        <ele>1198.9</ele>
        <time>2017-01-17T10:04:42Z</time>
      </trkpt>
      <trkpt lat="42.95115" lon="0.2447">
        <ele>1199.86</ele>
        <time>2017-01-17T10:04:54Z</time>
      </trkpt>
      <trkpt lat="42.95108" lon="0.24462">
        <ele>1199.38</ele>
        <time>2017-01-17T10:05:05Z</time>
      </trkpt>
      <trkpt lat="42.95098" lon="0.24455">
        <ele>1200.82</ele>
        <time>2017-01-17T10:05:19Z</time>
      </trkpt>
      <trkpt lat="42.95092" lon="0.24445">
        <ele>1201.3</ele>
        <time>2017-01-17T10:05:37Z</time>
      </trkpt>
      <trkpt lat="42.95086" lon="0.24438">
        <ele>1201.79</ele>
        <time>2017-01-17T10:05:51Z</time>
      </trkpt>
      <trkpt lat="42.95077" lon="0.24429">
        <ele>1202.27</ele>
        <time>2017-01-17T10:06:04Z</time>
      </trkpt>
      <trkpt lat="42.95063" lon="0.24424">
        <ele>1203.23</ele>
        <time>2017-01-17T10:06:39Z</time>
      </trkpt>
      <trkpt lat="42.95057" lon="0.24418">
        <ele>1204.19</ele>
        <time>2017-01-17T10:06:51Z</time>
      </trkpt>
      <trkpt lat="42.95049" lon="0.2441">
        <ele>1204.19</ele>
        <time>2017-01-17T10:07:03Z</time>
      </trkpt>
      <trkpt lat="42.95041" lon="0.24401">
        <ele>1205.15</ele>
        <time>2017-01-17T10:07:16Z</time>
      </trkpt>
      <trkpt lat="42.95033" lon="0.24394">
        <ele>1205.63</ele>
        <time>2017-01-17T10:07:28Z</time>
      </trkpt>
      <trkpt lat="42.95026" lon="0.24384">
        <ele>1205.63</ele>
        <time>2017-01-17T10:07:39Z</time>
      </trkpt>
      <trkpt lat="42.95022" lon="0.24373">
        <ele>1206.59</ele>
        <time>2017-01-17T10:07:51Z</time>
      </trkpt>
      <trkpt lat="42.95015" lon="0.24365">
        <ele>1206.59</ele>
        <time>2017-01-17T10:08:07Z</time>
      </trkpt>
      <trkpt lat="42.95007" lon="0.24356">
        <ele>1206.11</ele>
        <time>2017-01-17T10:08:20Z</time>
      </trkpt>
      <trkpt lat="42.95" lon="0.24348">
        <ele>1207.55</ele>
        <time>2017-01-17T10:08:35Z</time>
      </trkpt>
      <trkpt lat="42.94991" lon="0.24342">
        <ele>1208.51</ele>
        <time>2017-01-17T10:08:50Z</time>
      </trkpt>
      <trkpt lat="42.94982" lon="0.24333">
        <ele>1209</ele>
        <time>2017-01-17T10:09:02Z</time>
      </trkpt>
      <trkpt lat="42.94973" lon="0.24326">
        <ele>1209</ele>
        <time>2017-01-17T10:09:14Z</time>
      </trkpt>
      <trkpt lat="42.94965" lon="0.24321">
        <ele>1209.48</ele>
        <time>2017-01-17T10:09:26Z</time>
      </trkpt>
      <trkpt lat="42.94955" lon="0.24316">
        <ele>1209.48</ele>
        <time>2017-01-17T10:09:38Z</time>
      </trkpt>
      <trkpt lat="42.94946" lon="0.24309">
        <ele>1209.96</ele>
        <time>2017-01-17T10:09:50Z</time>
      </trkpt>
      <trkpt lat="42.9494" lon="0.24296">
        <ele>1210.44</ele>
        <time>2017-01-17T10:10:05Z</time>
      </trkpt>
      <trkpt lat="42.94931" lon="0.24291">
        <ele>1211.4</ele>
        <time>2017-01-17T10:10:22Z</time>
      </trkpt>
      <trkpt lat="42.9492" lon="0.24293">
        <ele>1211.4</ele>
        <time>2017-01-17T10:10:33Z</time>
      </trkpt>
      <trkpt lat="42.94913" lon="0.24291">
        <ele>1212.84</ele>
        <time>2017-01-17T10:10:46Z</time>
      </trkpt>
      <trkpt lat="42.94904" lon="0.24288">
        <ele>1213.32</ele>
        <time>2017-01-17T10:10:58Z</time>
      </trkpt>
      <trkpt lat="42.94894" lon="0.24289">
        <ele>1214.28</ele>
        <time>2017-01-17T10:11:10Z</time>
      </trkpt>
      <trkpt lat="42.94885" lon="0.24294">
        <ele>1215.24</ele>
        <time>2017-01-17T10:11:20Z</time>
      </trkpt>
      <trkpt lat="42.94877" lon="0.24293">
        <ele>1217.65</ele>
        <time>2017-01-17T10:11:36Z</time>
      </trkpt>
      <trkpt lat="42.94871" lon="0.24283">
        <ele>1216.21</ele>
        <time>2017-01-17T10:11:49Z</time>
      </trkpt>
      <trkpt lat="42.94865" lon="0.24273">
        <ele>1217.17</ele>
        <time>2017-01-17T10:12:01Z</time>
      </trkpt>
      <trkpt lat="42.94856" lon="0.24267">
        <ele>1218.13</ele>
        <time>2017-01-17T10:12:27Z</time>
      </trkpt>
      <trkpt lat="42.94846" lon="0.24263">
        <ele>1218.61</ele>
        <time>2017-01-17T10:12:38Z</time>
      </trkpt>
      <trkpt lat="42.94835" lon="0.24258">
        <ele>1218.61</ele>
        <time>2017-01-17T10:12:49Z</time>
      </trkpt>
      <trkpt lat="42.94827" lon="0.24255">
        <ele>1220.05</ele>
        <time>2017-01-17T10:13:01Z</time>
      </trkpt>
      <trkpt lat="42.94819" lon="0.24249">
        <ele>1221.01</ele>
        <time>2017-01-17T10:13:12Z</time>
      </trkpt>
      <trkpt lat="42.94812" lon="0.24242">
        <ele>1221.49</ele>
        <time>2017-01-17T10:13:38Z</time>
      </trkpt>
      <trkpt lat="42.94807" lon="0.24233">
        <ele>1222.45</ele>
        <time>2017-01-17T10:13:53Z</time>
      </trkpt>
      <trkpt lat="42.94801" lon="0.24225">
        <ele>1222.45</ele>
        <time>2017-01-17T10:14:28Z</time>
      </trkpt>
      <trkpt lat="42.94796" lon="0.24219">
        <ele>1223.42</ele>
        <time>2017-01-17T10:14:59Z</time>
      </trkpt>
      <trkpt lat="42.94786" lon="0.24214">
        <ele>1223.9</ele>
        <time>2017-01-17T10:15:11Z</time>
      </trkpt>
      <trkpt lat="42.94777" lon="0.24208">
        <ele>1224.86</ele>
        <time>2017-01-17T10:15:23Z</time>
      </trkpt>
      <trkpt lat="42.9477" lon="0.24199">
        <ele>1225.82</ele>
        <time>2017-01-17T10:15:36Z</time>
      </trkpt>
      <trkpt lat="42.94761" lon="0.24191">
        <ele>1226.78</ele>
        <time>2017-01-17T10:15:49Z</time>
      </trkpt>
      <trkpt lat="42.94752" lon="0.24183">
        <ele>1227.74</ele>
        <time>2017-01-17T10:16:02Z</time>
      </trkpt>
      <trkpt lat="42.94748" lon="0.24171">
        <ele>1229.18</ele>
        <time>2017-01-17T10:16:17Z</time>
      </trkpt>
      <trkpt lat="42.94746" lon="0.24169">
        <ele>1228.7</ele>
        <time>2017-01-17T10:17:45Z</time>
      </trkpt>
      <trkpt lat="42.94738" lon="0.24175">
        <ele>1227.26</ele>
        <time>2017-01-17T10:17:56Z</time>
      </trkpt>
      <trkpt lat="42.94729" lon="0.24175">
        <ele>1225.82</ele>
        <time>2017-01-17T10:18:07Z</time>
      </trkpt>
      <trkpt lat="42.94719" lon="0.2417">
        <ele>1224.86</ele>
        <time>2017-01-17T10:18:19Z</time>
      </trkpt>
      <trkpt lat="42.94709" lon="0.24167">
        <ele>1222.93</ele>
        <time>2017-01-17T10:18:33Z</time>
      </trkpt>
      <trkpt lat="42.94698" lon="0.24163">
        <ele>1221.49</ele>
        <time>2017-01-17T10:18:48Z</time>
      </trkpt>
      <trkpt lat="42.94687" lon="0.2416">
        <ele>1220.53</ele>
        <time>2017-01-17T10:19:03Z</time>
      </trkpt>
      <trkpt lat="42.94676" lon="0.2416">
        <ele>1220.53</ele>
        <time>2017-01-17T10:19:15Z</time>
      </trkpt>
      <trkpt lat="42.94664" lon="0.2416">
        <ele>1220.53</ele>
        <time>2017-01-17T10:19:27Z</time>
      </trkpt>
      <trkpt lat="42.94654" lon="0.2416">
        <ele>1221.01</ele>
        <time>2017-01-17T10:19:39Z</time>
      </trkpt>
      <trkpt lat="42.94643" lon="0.2416">
        <ele>1221.01</ele>
        <time>2017-01-17T10:19:54Z</time>
      </trkpt>
      <trkpt lat="42.94631" lon="0.24159">
        <ele>1221.49</ele>
        <time>2017-01-17T10:20:08Z</time>
      </trkpt>
      <trkpt lat="42.9462" lon="0.24161">
        <ele>1221.97</ele>
        <time>2017-01-17T10:20:23Z</time>
      </trkpt>
      <trkpt lat="42.94608" lon="0.24161">
        <ele>1223.42</ele>
        <time>2017-01-17T10:20:39Z</time>
      </trkpt>
      <trkpt lat="42.94598" lon="0.2416">
        <ele>1224.38</ele>
        <time>2017-01-17T10:20:53Z</time>
      </trkpt>
      <trkpt lat="42.94587" lon="0.24159">
        <ele>1225.82</ele>
        <time>2017-01-17T10:21:06Z</time>
      </trkpt>
      <trkpt lat="42.94577" lon="0.24159">
        <ele>1226.78</ele>
        <time>2017-01-17T10:21:20Z</time>
      </trkpt>
      <trkpt lat="42.94567" lon="0.24157">
        <ele>1228.22</ele>
        <time>2017-01-17T10:21:40Z</time>
      </trkpt>
      <trkpt lat="42.94563" lon="0.24149">
        <ele>1229.66</ele>
        <time>2017-01-17T10:22:05Z</time>
      </trkpt>
      <trkpt lat="42.94563" lon="0.2414">
        <ele>1230.14</ele>
        <time>2017-01-17T10:23:44Z</time>
      </trkpt>
      <trkpt lat="42.94565" lon="0.24127">
        <ele>1230.14</ele>
        <time>2017-01-17T10:25:36Z</time>
      </trkpt>
      <trkpt lat="42.94567" lon="0.24114">
        <ele>1231.11</ele>
        <time>2017-01-17T10:25:49Z</time>
      </trkpt>
      <trkpt lat="42.94571" lon="0.24101">
        <ele>1231.59</ele>
        <time>2017-01-17T10:26:00Z</time>
      </trkpt>
      <trkpt lat="42.94574" lon="0.24089">
        <ele>1232.07</ele>
        <time>2017-01-17T10:26:11Z</time>
      </trkpt>
      <trkpt lat="42.94578" lon="0.24077">
        <ele>1232.07</ele>
        <time>2017-01-17T10:26:22Z</time>
      </trkpt>
      <trkpt lat="42.94582" lon="0.24065">
        <ele>1233.03</ele>
        <time>2017-01-17T10:26:32Z</time>
      </trkpt>
      <trkpt lat="42.94586" lon="0.24054">
        <ele>1233.03</ele>
        <time>2017-01-17T10:26:42Z</time>
      </trkpt>
      <trkpt lat="42.94591" lon="0.24041">
        <ele>1233.51</ele>
        <time>2017-01-17T10:26:52Z</time>
      </trkpt>
      <trkpt lat="42.94593" lon="0.24032">
        <ele>1233.99</ele>
        <time>2017-01-17T10:27:08Z</time>
      </trkpt>
      <trkpt lat="42.94585" lon="0.24026">
        <ele>1235.91</ele>
        <time>2017-01-17T10:27:22Z</time>
      </trkpt>
      <trkpt lat="42.94579" lon="0.24017">
        <ele>1237.35</ele>
        <time>2017-01-17T10:27:33Z</time>
      </trkpt>
      <trkpt lat="42.94574" lon="0.24007">
        <ele>1238.32</ele>
        <time>2017-01-17T10:27:45Z</time>
      </trkpt>
      <trkpt lat="42.94568" lon="0.23999">
        <ele>1239.28</ele>
        <time>2017-01-17T10:27:56Z</time>
      </trkpt>
      <trkpt lat="42.94561" lon="0.2399">
        <ele>1240.72</ele>
        <time>2017-01-17T10:28:08Z</time>
      </trkpt>
      <trkpt lat="42.94554" lon="0.23981">
        <ele>1242.16</ele>
        <time>2017-01-17T10:28:20Z</time>
      </trkpt>
      <trkpt lat="42.94547" lon="0.23972">
        <ele>1243.6</ele>
        <time>2017-01-17T10:28:32Z</time>
      </trkpt>
      <trkpt lat="42.9454" lon="0.23966">
        <ele>1245.04</ele>
        <time>2017-01-17T10:28:45Z</time>
      </trkpt>
      <trkpt lat="42.94531" lon="0.23963">
        <ele>1246.01</ele>
        <time>2017-01-17T10:28:57Z</time>
      </trkpt>
      <trkpt lat="42.94524" lon="0.23954">
        <ele>1247.45</ele>
        <time>2017-01-17T10:29:09Z</time>
      </trkpt>
      <trkpt lat="42.94516" lon="0.23947">
        <ele>1249.37</ele>
        <time>2017-01-17T10:29:22Z</time>
      </trkpt>
      <trkpt lat="42.94509" lon="0.23939">
        <ele>1250.33</ele>
        <time>2017-01-17T10:29:34Z</time>
      </trkpt>
      <trkpt lat="42.94503" lon="0.2393">
        <ele>1252.25</ele>
        <time>2017-01-17T10:29:47Z</time>
      </trkpt>
      <trkpt lat="42.94496" lon="0.23922">
        <ele>1254.66</ele>
        <time>2017-01-17T10:30:00Z</time>
      </trkpt>
      <trkpt lat="42.94488" lon="0.23923">
        <ele>1256.1</ele>
        <time>2017-01-17T10:30:14Z</time>
      </trkpt>
      <trkpt lat="42.94478" lon="0.23927">
        <ele>1258.02</ele>
        <time>2017-01-17T10:30:26Z</time>
      </trkpt>
      <trkpt lat="42.94469" lon="0.23936">
        <ele>1259.46</ele>
        <time>2017-01-17T10:30:38Z</time>
      </trkpt>
      <trkpt lat="42.94464" lon="0.23946">
        <ele>1260.43</ele>
        <time>2017-01-17T10:30:50Z</time>
      </trkpt>
      <trkpt lat="42.94458" lon="0.23955">
        <ele>1260.91</ele>
        <time>2017-01-17T10:31:02Z</time>
      </trkpt>
      <trkpt lat="42.94454" lon="0.23966">
        <ele>1261.39</ele>
        <time>2017-01-17T10:31:14Z</time>
      </trkpt>
      <trkpt lat="42.94447" lon="0.23977">
        <ele>1262.35</ele>
        <time>2017-01-17T10:31:27Z</time>
      </trkpt>
      <trkpt lat="42.94442" lon="0.23987">
        <ele>1262.35</ele>
        <time>2017-01-17T10:31:39Z</time>
      </trkpt>
      <trkpt lat="42.94438" lon="0.23998">
        <ele>1263.31</ele>
        <time>2017-01-17T10:31:50Z</time>
      </trkpt>
      <trkpt lat="42.94433" lon="0.24007">
        <ele>1263.31</ele>
        <time>2017-01-17T10:32:09Z</time>
      </trkpt>
      <trkpt lat="42.94434" lon="0.24007">
        <ele>1265.23</ele>
        <time>2017-01-17T10:37:04Z</time>
      </trkpt>
      <trkpt lat="42.94429" lon="0.24014">
        <ele>1265.23</ele>
        <time>2017-01-17T10:37:32Z</time>
      </trkpt>
      <trkpt lat="42.9442" lon="0.2402">
        <ele>1265.71</ele>
        <time>2017-01-17T10:37:46Z</time>
      </trkpt>
      <trkpt lat="42.94413" lon="0.24028">
        <ele>1266.19</ele>
        <time>2017-01-17T10:37:58Z</time>
      </trkpt>
      <trkpt lat="42.94407" lon="0.24037">
        <ele>1267.16</ele>
        <time>2017-01-17T10:38:09Z</time>
      </trkpt>
      <trkpt lat="42.944" lon="0.24045">
        <ele>1267.64</ele>
        <time>2017-01-17T10:38:21Z</time>
      </trkpt>
      <trkpt lat="42.9439" lon="0.2405">
        <ele>1268.12</ele>
        <time>2017-01-17T10:38:34Z</time>
      </trkpt>
      <trkpt lat="42.9438" lon="0.2405">
        <ele>1268.6</ele>
        <time>2017-01-17T10:38:47Z</time>
      </trkpt>
      <trkpt lat="42.94371" lon="0.24051">
        <ele>1267.64</ele>
        <time>2017-01-17T10:39:05Z</time>
      </trkpt>
      <trkpt lat="42.94362" lon="0.24052">
        <ele>1267.64</ele>
        <time>2017-01-17T10:39:17Z</time>
      </trkpt>
      <trkpt lat="42.94351" lon="0.24048">
        <ele>1268.6</ele>
        <time>2017-01-17T10:39:37Z</time>
      </trkpt>
      <trkpt lat="42.94341" lon="0.24048">
        <ele>1269.56</ele>
        <time>2017-01-17T10:39:53Z</time>
      </trkpt>
      <trkpt lat="42.94333" lon="0.24055">
        <ele>1271</ele>
        <time>2017-01-17T10:40:08Z</time>
      </trkpt>
      <trkpt lat="42.94328" lon="0.2407">
        <ele>1272.44</ele>
        <time>2017-01-17T10:40:29Z</time>
      </trkpt>
      <trkpt lat="42.94324" lon="0.24085">
        <ele>1273.4</ele>
        <time>2017-01-17T10:40:44Z</time>
      </trkpt>
      <trkpt lat="42.94321" lon="0.24095">
        <ele>1274.85</ele>
        <time>2017-01-17T10:40:58Z</time>
      </trkpt>
      <trkpt lat="42.94315" lon="0.24107">
        <ele>1276.29</ele>
        <time>2017-01-17T10:41:15Z</time>
      </trkpt>
      <trkpt lat="42.94308" lon="0.24115">
        <ele>1277.73</ele>
        <time>2017-01-17T10:41:30Z</time>
      </trkpt>
      <trkpt lat="42.94301" lon="0.24124">
        <ele>1278.21</ele>
        <time>2017-01-17T10:41:45Z</time>
      </trkpt>
      <trkpt lat="42.94294" lon="0.24136">
        <ele>1278.21</ele>
        <time>2017-01-17T10:42:05Z</time>
      </trkpt>
      <trkpt lat="42.94295" lon="0.2415">
        <ele>1279.17</ele>
        <time>2017-01-17T10:42:24Z</time>
      </trkpt>
      <trkpt lat="42.94301" lon="0.2416">
        <ele>1280.61</ele>
        <time>2017-01-17T10:42:36Z</time>
      </trkpt>
      <trkpt lat="42.94304" lon="0.24169">
        <ele>1281.09</ele>
        <time>2017-01-17T10:42:51Z</time>
      </trkpt>
      <trkpt lat="42.94308" lon="0.2418">
        <ele>1282.54</ele>
        <time>2017-01-17T10:43:07Z</time>
      </trkpt>
      <trkpt lat="42.9431" lon="0.24192">
        <ele>1283.98</ele>
        <time>2017-01-17T10:43:26Z</time>
      </trkpt>
      <trkpt lat="42.94313" lon="0.24206">
        <ele>1284.94</ele>
        <time>2017-01-17T10:43:42Z</time>
      </trkpt>
      <trkpt lat="42.94316" lon="0.24219">
        <ele>1285.9</ele>
        <time>2017-01-17T10:43:57Z</time>
      </trkpt>
      <trkpt lat="42.94319" lon="0.24232">
        <ele>1286.38</ele>
        <time>2017-01-17T10:44:14Z</time>
      </trkpt>
      <trkpt lat="42.9432" lon="0.24247">
        <ele>1287.82</ele>
        <time>2017-01-17T10:44:34Z</time>
      </trkpt>
      <trkpt lat="42.94322" lon="0.24259">
        <ele>1288.78</ele>
        <time>2017-01-17T10:44:47Z</time>
      </trkpt>
      <trkpt lat="42.94323" lon="0.24272">
        <ele>1289.75</ele>
        <time>2017-01-17T10:45:00Z</time>
      </trkpt>
      <trkpt lat="42.94323" lon="0.24285">
        <ele>1290.71</ele>
        <time>2017-01-17T10:45:13Z</time>
      </trkpt>
      <trkpt lat="42.94323" lon="0.24294">
        <ele>1291.19</ele>
        <time>2017-01-17T10:45:40Z</time>
      </trkpt>
      <trkpt lat="42.94321" lon="0.24306">
        <ele>1291.67</ele>
        <time>2017-01-17T10:45:53Z</time>
      </trkpt>
      <trkpt lat="42.94317" lon="0.24319">
        <ele>1293.11</ele>
        <time>2017-01-17T10:46:04Z</time>
      </trkpt>
      <trkpt lat="42.94314" lon="0.24331">
        <ele>1293.59</ele>
        <time>2017-01-17T10:46:15Z</time>
      </trkpt>
      <trkpt lat="42.94311" lon="0.24344">
        <ele>1294.07</ele>
        <time>2017-01-17T10:46:26Z</time>
      </trkpt>
      <trkpt lat="42.94308" lon="0.24356">
        <ele>1295.03</ele>
        <time>2017-01-17T10:46:37Z</time>
      </trkpt>
      <trkpt lat="42.94304" lon="0.24368">
        <ele>1295.51</ele>
        <time>2017-01-17T10:46:48Z</time>
      </trkpt>
      <trkpt lat="42.943" lon="0.24378">
        <ele>1295.99</ele>
        <time>2017-01-17T10:46:59Z</time>
      </trkpt>
      <trkpt lat="42.94295" lon="0.24389">
        <ele>1296.96</ele>
        <time>2017-01-17T10:47:09Z</time>
      </trkpt>
      <trkpt lat="42.9429" lon="0.244">
        <ele>1297.44</ele>
        <time>2017-01-17T10:47:20Z</time>
      </trkpt>
      <trkpt lat="42.94286" lon="0.2441">
        <ele>1298.4</ele>
        <time>2017-01-17T10:47:41Z</time>
      </trkpt>
      <trkpt lat="42.94279" lon="0.2442">
        <ele>1298.88</ele>
        <time>2017-01-17T10:47:51Z</time>
      </trkpt>
      <trkpt lat="42.94274" lon="0.24431">
        <ele>1298.88</ele>
        <time>2017-01-17T10:48:01Z</time>
      </trkpt>
      <trkpt lat="42.94268" lon="0.24441">
        <ele>1299.84</ele>
        <time>2017-01-17T10:48:12Z</time>
      </trkpt>
      <trkpt lat="42.94261" lon="0.24451">
        <ele>1300.8</ele>
        <time>2017-01-17T10:48:23Z</time>
      </trkpt>
      <trkpt lat="42.94255" lon="0.2446">
        <ele>1301.28</ele>
        <time>2017-01-17T10:48:34Z</time>
      </trkpt>
      <trkpt lat="42.94249" lon="0.2447">
        <ele>1302.24</ele>
        <time>2017-01-17T10:48:46Z</time>
      </trkpt>
      <trkpt lat="42.94242" lon="0.24478">
        <ele>1302.72</ele>
        <time>2017-01-17T10:48:57Z</time>
      </trkpt>
      <trkpt lat="42.94235" lon="0.24487">
        <ele>1303.69</ele>
        <time>2017-01-17T10:49:08Z</time>
      </trkpt>
      <trkpt lat="42.94228" lon="0.24496">
        <ele>1304.17</ele>
        <time>2017-01-17T10:49:19Z</time>
      </trkpt>
      <trkpt lat="42.9422" lon="0.24503">
        <ele>1305.13</ele>
        <time>2017-01-17T10:49:30Z</time>
      </trkpt>
      <trkpt lat="42.94212" lon="0.2451">
        <ele>1305.61</ele>
        <time>2017-01-17T10:49:40Z</time>
      </trkpt>
      <trkpt lat="42.94205" lon="0.24518">
        <ele>1306.57</ele>
        <time>2017-01-17T10:49:51Z</time>
      </trkpt>
      <trkpt lat="42.94196" lon="0.24524">
        <ele>1307.05</ele>
        <time>2017-01-17T10:50:02Z</time>
      </trkpt>
      <trkpt lat="42.94188" lon="0.24531">
        <ele>1308.01</ele>
        <time>2017-01-17T10:50:13Z</time>
      </trkpt>
      <trkpt lat="42.94179" lon="0.24535">
        <ele>1308.97</ele>
        <time>2017-01-17T10:50:24Z</time>
      </trkpt>
      <trkpt lat="42.94171" lon="0.24539">
        <ele>1309.93</ele>
        <time>2017-01-17T10:50:35Z</time>
      </trkpt>
      <trkpt lat="42.94162" lon="0.24544">
        <ele>1310.9</ele>
        <time>2017-01-17T10:50:46Z</time>
      </trkpt>
      <trkpt lat="42.94154" lon="0.24548">
        <ele>1311.86</ele>
        <time>2017-01-17T10:50:57Z</time>
      </trkpt>
      <trkpt lat="42.94145" lon="0.24549">
        <ele>1312.34</ele>
        <time>2017-01-17T10:51:08Z</time>
      </trkpt>
      <trkpt lat="42.94136" lon="0.24548">
        <ele>1312.82</ele>
        <time>2017-01-17T10:51:22Z</time>
      </trkpt>
      <trkpt lat="42.94126" lon="0.24548">
        <ele>1313.78</ele>
        <time>2017-01-17T10:51:35Z</time>
      </trkpt>
      <trkpt lat="42.94116" lon="0.24546">
        <ele>1315.7</ele>
        <time>2017-01-17T10:51:47Z</time>
      </trkpt>
      <trkpt lat="42.94107" lon="0.24543">
        <ele>1317.14</ele>
        <time>2017-01-17T10:51:59Z</time>
      </trkpt>
      <trkpt lat="42.94098" lon="0.2454">
        <ele>1318.1</ele>
        <time>2017-01-17T10:52:10Z</time>
      </trkpt>
      <trkpt lat="42.9409" lon="0.24532">
        <ele>1318.1</ele>
        <time>2017-01-17T10:52:21Z</time>
      </trkpt>
      <trkpt lat="42.94083" lon="0.24524">
        <ele>1318.1</ele>
        <time>2017-01-17T10:52:35Z</time>
      </trkpt>
      <trkpt lat="42.94074" lon="0.24519">
        <ele>1319.55</ele>
        <time>2017-01-17T10:52:46Z</time>
      </trkpt>
      <trkpt lat="42.94066" lon="0.2452">
        <ele>1319.55</ele>
        <time>2017-01-17T10:52:56Z</time>
      </trkpt>
      <trkpt lat="42.94056" lon="0.24525">
        <ele>1319.55</ele>
        <time>2017-01-17T10:53:07Z</time>
      </trkpt>
      <trkpt lat="42.94048" lon="0.24533">
        <ele>1319.07</ele>
        <time>2017-01-17T10:53:17Z</time>
      </trkpt>
      <trkpt lat="42.94042" lon="0.24542">
        <ele>1319.55</ele>
        <time>2017-01-17T10:53:28Z</time>
      </trkpt>
      <trkpt lat="42.94035" lon="0.2455">
        <ele>1320.51</ele>
        <time>2017-01-17T10:53:39Z</time>
      </trkpt>
      <trkpt lat="42.94026" lon="0.24555">
        <ele>1320.03</ele>
        <time>2017-01-17T10:53:51Z</time>
      </trkpt>
      <trkpt lat="42.94017" lon="0.24561">
        <ele>1320.03</ele>
        <time>2017-01-17T10:54:01Z</time>
      </trkpt>
      <trkpt lat="42.94009" lon="0.24566">
        <ele>1320.03</ele>
        <time>2017-01-17T10:54:11Z</time>
      </trkpt>
      <trkpt lat="42.94" lon="0.24571">
        <ele>1319.55</ele>
        <time>2017-01-17T10:54:22Z</time>
      </trkpt>
      <trkpt lat="42.93992" lon="0.24576">
        <ele>1320.03</ele>
        <time>2017-01-17T10:54:33Z</time>
      </trkpt>
      <trkpt lat="42.93982" lon="0.24581">
        <ele>1320.51</ele>
        <time>2017-01-17T10:54:44Z</time>
      </trkpt>
      <trkpt lat="42.93974" lon="0.24585">
        <ele>1320.51</ele>
        <time>2017-01-17T10:54:54Z</time>
      </trkpt>
      <trkpt lat="42.93964" lon="0.24587">
        <ele>1320.51</ele>
        <time>2017-01-17T10:55:06Z</time>
      </trkpt>
      <trkpt lat="42.93955" lon="0.24592">
        <ele>1320.51</ele>
        <time>2017-01-17T10:55:17Z</time>
      </trkpt>
      <trkpt lat="42.93946" lon="0.24593">
        <ele>1320.03</ele>
        <time>2017-01-17T10:55:29Z</time>
      </trkpt>
      <trkpt lat="42.93938" lon="0.24597">
        <ele>1320.51</ele>
        <time>2017-01-17T10:55:42Z</time>
      </trkpt>
      <trkpt lat="42.93928" lon="0.24599">
        <ele>1320.99</ele>
        <time>2017-01-17T10:55:55Z</time>
      </trkpt>
      <trkpt lat="42.9392" lon="0.246">
        <ele>1320.99</ele>
        <time>2017-01-17T10:56:07Z</time>
      </trkpt>
      <trkpt lat="42.93911" lon="0.246">
        <ele>1321.47</ele>
        <time>2017-01-17T10:56:20Z</time>
      </trkpt>
      <trkpt lat="42.93901" lon="0.24599">
        <ele>1322.43</ele>
        <time>2017-01-17T10:56:33Z</time>
      </trkpt>
      <trkpt lat="42.93892" lon="0.24597">
        <ele>1323.39</ele>
        <time>2017-01-17T10:56:46Z</time>
      </trkpt>
      <trkpt lat="42.93882" lon="0.24597">
        <ele>1323.87</ele>
        <time>2017-01-17T10:56:59Z</time>
      </trkpt>
      <trkpt lat="42.93873" lon="0.24598">
        <ele>1324.35</ele>
        <time>2017-01-17T10:57:12Z</time>
      </trkpt>
      <trkpt lat="42.93865" lon="0.24601">
        <ele>1324.83</ele>
        <time>2017-01-17T10:57:26Z</time>
      </trkpt>
      <trkpt lat="42.93855" lon="0.24604">
        <ele>1325.31</ele>
        <time>2017-01-17T10:57:37Z</time>
      </trkpt>
      <trkpt lat="42.93847" lon="0.24606">
        <ele>1325.8</ele>
        <time>2017-01-17T10:57:49Z</time>
      </trkpt>
      <trkpt lat="42.93838" lon="0.24608">
        <ele>1325.8</ele>
        <time>2017-01-17T10:58:01Z</time>
      </trkpt>
      <trkpt lat="42.93828" lon="0.24609">
        <ele>1326.28</ele>
        <time>2017-01-17T10:58:12Z</time>
      </trkpt>
      <trkpt lat="42.93819" lon="0.24608">
        <ele>1326.76</ele>
        <time>2017-01-17T10:58:30Z</time>
      </trkpt>
      <trkpt lat="42.93813" lon="0.24608">
        <ele>1326.76</ele>
        <time>2017-01-17T11:00:27Z</time>
      </trkpt>
      <trkpt lat="42.93806" lon="0.24603">
        <ele>1326.28</ele>
        <time>2017-01-17T11:02:06Z</time>
      </trkpt>
      <trkpt lat="42.93796" lon="0.24604">
        <ele>1326.76</ele>
        <time>2017-01-17T11:02:49Z</time>
      </trkpt>
      <trkpt lat="42.9379" lon="0.24601">
        <ele>1327.24</ele>
        <time>2017-01-17T11:03:08Z</time>
      </trkpt>
      <trkpt lat="42.93782" lon="0.24596">
        <ele>1327.72</ele>
        <time>2017-01-17T11:03:20Z</time>
      </trkpt>
      <trkpt lat="42.93773" lon="0.24595">
        <ele>1328.68</ele>
        <time>2017-01-17T11:03:35Z</time>
      </trkpt>
      <trkpt lat="42.93763" lon="0.24593">
        <ele>1329.64</ele>
        <time>2017-01-17T11:03:48Z</time>
      </trkpt>
      <trkpt lat="42.93753" lon="0.2459">
        <ele>1330.6</ele>
        <time>2017-01-17T11:04:03Z</time>
      </trkpt>
      <trkpt lat="42.93745" lon="0.24586">
        <ele>1331.08</ele>
        <time>2017-01-17T11:04:17Z</time>
      </trkpt>
      <trkpt lat="42.93735" lon="0.24582">
        <ele>1331.56</ele>
        <time>2017-01-17T11:04:30Z</time>
      </trkpt>
      <trkpt lat="42.93728" lon="0.24582">
        <ele>1329.64</ele>
        <time>2017-01-17T11:05:38Z</time>
      </trkpt>
      <trkpt lat="42.93723" lon="0.24574">
        <ele>1333.01</ele>
        <time>2017-01-17T11:06:16Z</time>
      </trkpt>
      <trkpt lat="42.93714" lon="0.24571">
        <ele>1333.01</ele>
        <time>2017-01-17T11:06:27Z</time>
      </trkpt>
      <trkpt lat="42.93706" lon="0.24574">
        <ele>1332.52</ele>
        <time>2017-01-17T11:06:37Z</time>
      </trkpt>
      <trkpt lat="42.93697" lon="0.24576">
        <ele>1331.56</ele>
        <time>2017-01-17T11:06:46Z</time>
      </trkpt>
      <trkpt lat="42.93688" lon="0.24572">
        <ele>1332.04</ele>
        <time>2017-01-17T11:06:59Z</time>
      </trkpt>
      <trkpt lat="42.93683" lon="0.24578">
        <ele>1331.08</ele>
        <time>2017-01-17T11:07:19Z</time>
      </trkpt>
      <trkpt lat="42.93687" lon="0.24591">
        <ele>1330.12</ele>
        <time>2017-01-17T11:09:21Z</time>
      </trkpt>
      <trkpt lat="42.93692" lon="0.24601">
        <ele>1331.08</ele>
        <time>2017-01-17T11:09:33Z</time>
      </trkpt>
      <trkpt lat="42.93697" lon="0.2461">
        <ele>1332.04</ele>
        <time>2017-01-17T11:09:56Z</time>
      </trkpt>
      <trkpt lat="42.93704" lon="0.2462">
        <ele>1332.52</ele>
        <time>2017-01-17T11:10:07Z</time>
      </trkpt>
      <trkpt lat="42.93708" lon="0.24629">
        <ele>1333.49</ele>
        <time>2017-01-17T11:10:19Z</time>
      </trkpt>
      <trkpt lat="42.93714" lon="0.24641">
        <ele>1333.97</ele>
        <time>2017-01-17T11:10:33Z</time>
      </trkpt>
      <trkpt lat="42.93714" lon="0.24654">
        <ele>1334.45</ele>
        <time>2017-01-17T11:11:03Z</time>
      </trkpt>
      <trkpt lat="42.93717" lon="0.24666">
        <ele>1334.45</ele>
        <time>2017-01-17T11:11:15Z</time>
      </trkpt>
      <trkpt lat="42.93718" lon="0.24678">
        <ele>1334.93</ele>
        <time>2017-01-17T11:11:29Z</time>
      </trkpt>
      <trkpt lat="42.93721" lon="0.24692">
        <ele>1335.89</ele>
        <time>2017-01-17T11:11:43Z</time>
      </trkpt>
      <trkpt lat="42.93721" lon="0.24705">
        <ele>1336.37</ele>
        <time>2017-01-17T11:11:56Z</time>
      </trkpt>
      <trkpt lat="42.93718" lon="0.24718">
        <ele>1336.85</ele>
        <time>2017-01-17T11:12:11Z</time>
      </trkpt>
      <trkpt lat="42.9371" lon="0.24724">
        <ele>1338.29</ele>
        <time>2017-01-17T11:12:25Z</time>
      </trkpt>
      <trkpt lat="42.93701" lon="0.24724">
        <ele>1340.7</ele>
        <time>2017-01-17T11:12:40Z</time>
      </trkpt>
      <trkpt lat="42.93693" lon="0.24718">
        <ele>1342.62</ele>
        <time>2017-01-17T11:12:54Z</time>
      </trkpt>
      <trkpt lat="42.93685" lon="0.24721">
        <ele>1344.54</ele>
        <time>2017-01-17T11:13:09Z</time>
      </trkpt>
      <trkpt lat="42.93677" lon="0.24715">
        <ele>1346.46</ele>
        <time>2017-01-17T11:13:25Z</time>
      </trkpt>
      <trkpt lat="42.93669" lon="0.2471">
        <ele>1347.43</ele>
        <time>2017-01-17T11:13:40Z</time>
      </trkpt>
      <trkpt lat="42.9366" lon="0.24707">
        <ele>1349.35</ele>
        <time>2017-01-17T11:13:56Z</time>
      </trkpt>
      <trkpt lat="42.93655" lon="0.24697">
        <ele>1350.31</ele>
        <time>2017-01-17T11:14:11Z</time>
      </trkpt>
      <trkpt lat="42.93646" lon="0.24694">
        <ele>1351.75</ele>
        <time>2017-01-17T11:14:26Z</time>
      </trkpt>
      <trkpt lat="42.93639" lon="0.24685">
        <ele>1353.19</ele>
        <time>2017-01-17T11:14:41Z</time>
      </trkpt>
      <trkpt lat="42.93633" lon="0.24675">
        <ele>1354.63</ele>
        <time>2017-01-17T11:14:55Z</time>
      </trkpt>
      <trkpt lat="42.93626" lon="0.2467">
        <ele>1356.08</ele>
        <time>2017-01-17T11:15:11Z</time>
      </trkpt>
      <trkpt lat="42.93622" lon="0.24659">
        <ele>1357.52</ele>
        <time>2017-01-17T11:15:24Z</time>
      </trkpt>
      <trkpt lat="42.93616" lon="0.24649">
        <ele>1358.48</ele>
        <time>2017-01-17T11:15:37Z</time>
      </trkpt>
      <trkpt lat="42.93611" lon="0.2464">
        <ele>1359.44</ele>
        <time>2017-01-17T11:15:50Z</time>
      </trkpt>
      <trkpt lat="42.93602" lon="0.24639">
        <ele>1359.44</ele>
        <time>2017-01-17T11:16:02Z</time>
      </trkpt>
      <trkpt lat="42.93593" lon="0.24637">
        <ele>1359.92</ele>
        <time>2017-01-17T11:16:15Z</time>
      </trkpt>
      <trkpt lat="42.93583" lon="0.24636">
        <ele>1361.36</ele>
        <time>2017-01-17T11:16:29Z</time>
      </trkpt>
      <trkpt lat="42.93576" lon="0.24627">
        <ele>1361.84</ele>
        <time>2017-01-17T11:16:41Z</time>
      </trkpt>
      <trkpt lat="42.93567" lon="0.24624">
        <ele>1363.77</ele>
        <time>2017-01-17T11:16:54Z</time>
      </trkpt>
      <trkpt lat="42.93559" lon="0.24619">
        <ele>1365.21</ele>
        <time>2017-01-17T11:17:07Z</time>
      </trkpt>
      <trkpt lat="42.93553" lon="0.24609">
        <ele>1367.13</ele>
        <time>2017-01-17T11:17:20Z</time>
      </trkpt>
      <trkpt lat="42.93546" lon="0.24601">
        <ele>1369.05</ele>
        <time>2017-01-17T11:17:36Z</time>
      </trkpt>
      <trkpt lat="42.93542" lon="0.2459">
        <ele>1370.98</ele>
        <time>2017-01-17T11:17:51Z</time>
      </trkpt>
      <trkpt lat="42.93536" lon="0.24581">
        <ele>1372.9</ele>
        <time>2017-01-17T11:18:04Z</time>
      </trkpt>
      <trkpt lat="42.93529" lon="0.24573">
        <ele>1374.82</ele>
        <time>2017-01-17T11:18:18Z</time>
      </trkpt>
      <trkpt lat="42.93522" lon="0.24566">
        <ele>1375.78</ele>
        <time>2017-01-17T11:18:31Z</time>
      </trkpt>
      <trkpt lat="42.93522" lon="0.24564">
        <ele>1375.78</ele>
        <time>2017-01-17T11:20:12Z</time>
      </trkpt>
      <trkpt lat="42.93519" lon="0.24563">
        <ele>1376.75</ele>
        <time>2017-01-17T11:21:46Z</time>
      </trkpt>
      <trkpt lat="42.93512" lon="0.24556">
        <ele>1377.71</ele>
        <time>2017-01-17T11:21:59Z</time>
      </trkpt>
      <trkpt lat="42.93503" lon="0.24554">
        <ele>1378.19</ele>
        <time>2017-01-17T11:22:12Z</time>
      </trkpt>
      <trkpt lat="42.93497" lon="0.24555">
        <ele>1379.15</ele>
        <time>2017-01-17T11:22:50Z</time>
      </trkpt>
      <trkpt lat="42.93488" lon="0.24548">
        <ele>1379.63</ele>
        <time>2017-01-17T11:23:42Z</time>
      </trkpt>
      <trkpt lat="42.9348" lon="0.24544">
        <ele>1381.07</ele>
        <time>2017-01-17T11:23:54Z</time>
      </trkpt>
      <trkpt lat="42.93472" lon="0.24538">
        <ele>1382.51</ele>
        <time>2017-01-17T11:24:08Z</time>
      </trkpt>
      <trkpt lat="42.93463" lon="0.24533">
        <ele>1383.96</ele>
        <time>2017-01-17T11:24:22Z</time>
      </trkpt>
      <trkpt lat="42.93456" lon="0.24526">
        <ele>1384.92</ele>
        <time>2017-01-17T11:24:36Z</time>
      </trkpt>
      <trkpt lat="42.93449" lon="0.24519">
        <ele>1385.88</ele>
        <time>2017-01-17T11:24:48Z</time>
      </trkpt>
      <trkpt lat="42.93439" lon="0.24516">
        <ele>1386.84</ele>
        <time>2017-01-17T11:25:06Z</time>
      </trkpt>
      <trkpt lat="42.9343" lon="0.24516">
        <ele>1388.76</ele>
        <time>2017-01-17T11:25:19Z</time>
      </trkpt>
      <trkpt lat="42.93421" lon="0.24513">
        <ele>1389.72</ele>
        <time>2017-01-17T11:25:31Z</time>
      </trkpt>
      <trkpt lat="42.93414" lon="0.24507">
        <ele>1390.68</ele>
        <time>2017-01-17T11:25:47Z</time>
      </trkpt>
      <trkpt lat="42.93405" lon="0.24502">
        <ele>1391.65</ele>
        <time>2017-01-17T11:26:00Z</time>
      </trkpt>
      <trkpt lat="42.93396" lon="0.24499">
        <ele>1393.57</ele>
        <time>2017-01-17T11:26:14Z</time>
      </trkpt>
      <trkpt lat="42.93389" lon="0.24497">
        <ele>1395.01</ele>
        <time>2017-01-17T11:26:37Z</time>
      </trkpt>
      <trkpt lat="42.93383" lon="0.24487">
        <ele>1395.01</ele>
        <time>2017-01-17T11:26:48Z</time>
      </trkpt>
      <trkpt lat="42.93377" lon="0.24477">
        <ele>1395.49</ele>
        <time>2017-01-17T11:26:59Z</time>
      </trkpt>
      <trkpt lat="42.93371" lon="0.24468">
        <ele>1395.97</ele>
        <time>2017-01-17T11:27:10Z</time>
      </trkpt>
      <trkpt lat="42.93364" lon="0.24461">
        <ele>1397.41</ele>
        <time>2017-01-17T11:27:21Z</time>
      </trkpt>
      <trkpt lat="42.93356" lon="0.24455">
        <ele>1398.86</ele>
        <time>2017-01-17T11:27:37Z</time>
      </trkpt>
      <trkpt lat="42.93359" lon="0.24447">
        <ele>1397.89</ele>
        <time>2017-01-17T11:28:26Z</time>
      </trkpt>
      <trkpt lat="42.93363" lon="0.24437">
        <ele>1395.97</ele>
        <time>2017-01-17T11:28:52Z</time>
      </trkpt>
      <trkpt lat="42.93368" lon="0.24428">
        <ele>1393.09</ele>
        <time>2017-01-17T11:29:08Z</time>
      </trkpt>
      <trkpt lat="42.93367" lon="0.24414">
        <ele>1390.68</ele>
        <time>2017-01-17T11:29:23Z</time>
      </trkpt>
      <trkpt lat="42.93366" lon="0.24403">
        <ele>1388.28</ele>
        <time>2017-01-17T11:29:40Z</time>
      </trkpt>
      <trkpt lat="42.93365" lon="0.2439">
        <ele>1385.88</ele>
        <time>2017-01-17T11:29:54Z</time>
      </trkpt>
      <trkpt lat="42.93362" lon="0.24379">
        <ele>1384.44</ele>
        <time>2017-01-17T11:30:06Z</time>
      </trkpt>
      <trkpt lat="42.93358" lon="0.24367">
        <ele>1383.96</ele>
        <time>2017-01-17T11:30:20Z</time>
      </trkpt>
      <trkpt lat="42.93356" lon="0.24356">
        <ele>1383.47</ele>
        <time>2017-01-17T11:30:33Z</time>
      </trkpt>
      <trkpt lat="42.9335" lon="0.24348">
        <ele>1383.96</ele>
        <time>2017-01-17T11:30:46Z</time>
      </trkpt>
      <trkpt lat="42.93348" lon="0.24335">
        <ele>1383.96</ele>
        <time>2017-01-17T11:31:01Z</time>
      </trkpt>
      <trkpt lat="42.93342" lon="0.24332">
        <ele>1385.4</ele>
        <time>2017-01-17T11:31:27Z</time>
      </trkpt>
      <trkpt lat="42.9334" lon="0.24326">
        <ele>1384.92</ele>
        <time>2017-01-17T11:33:40Z</time>
      </trkpt>
      <trkpt lat="42.93347" lon="0.24329">
        <ele>1382.51</ele>
        <time>2017-01-17T11:46:36Z</time>
      </trkpt>
      <trkpt lat="42.93339" lon="0.24324">
        <ele>1382.03</ele>
        <time>2017-01-17T12:05:28Z</time>
      </trkpt>
      <trkpt lat="42.93337" lon="0.24329">
        <ele>1382.99</ele>
        <time>2017-01-17T12:09:27Z</time>
      </trkpt>
      <trkpt lat="42.93334" lon="0.24323">
        <ele>1382.51</ele>
        <time>2017-01-17T12:11:56Z</time>
      </trkpt>
      <trkpt lat="42.93342" lon="0.24335">
        <ele>1382.03</ele>
        <time>2017-01-17T12:12:30Z</time>
      </trkpt>
      <trkpt lat="42.93346" lon="0.24343">
        <ele>1381.07</ele>
        <time>2017-01-17T12:12:53Z</time>
      </trkpt>
      <trkpt lat="42.93352" lon="0.24352">
        <ele>1380.11</ele>
        <time>2017-01-17T12:13:10Z</time>
      </trkpt>
      <trkpt lat="42.93357" lon="0.24361">
        <ele>1380.11</ele>
        <time>2017-01-17T12:13:21Z</time>
      </trkpt>
      <trkpt lat="42.93362" lon="0.24372">
        <ele>1379.63</ele>
        <time>2017-01-17T12:13:33Z</time>
      </trkpt>
      <trkpt lat="42.93364" lon="0.24384">
        <ele>1380.11</ele>
        <time>2017-01-17T12:13:45Z</time>
      </trkpt>
      <trkpt lat="42.93368" lon="0.24396">
        <ele>1381.07</ele>
        <time>2017-01-17T12:14:01Z</time>
      </trkpt>
      <trkpt lat="42.93375" lon="0.24406">
        <ele>1382.03</ele>
        <time>2017-01-17T12:14:13Z</time>
      </trkpt>
      <trkpt lat="42.93382" lon="0.24416">
        <ele>1383.96</ele>
        <time>2017-01-17T12:14:25Z</time>
      </trkpt>
      <trkpt lat="42.9338" lon="0.24429">
        <ele>1385.88</ele>
        <time>2017-01-17T12:14:37Z</time>
      </trkpt>
      <trkpt lat="42.93374" lon="0.2444">
        <ele>1388.28</ele>
        <time>2017-01-17T12:14:51Z</time>
      </trkpt>
      <trkpt lat="42.93371" lon="0.24449">
        <ele>1390.2</ele>
        <time>2017-01-17T12:15:07Z</time>
      </trkpt>
      <trkpt lat="42.93366" lon="0.2446">
        <ele>1391.65</ele>
        <time>2017-01-17T12:15:25Z</time>
      </trkpt>
      <trkpt lat="42.93356" lon="0.24462">
        <ele>1393.57</ele>
        <time>2017-01-17T12:15:43Z</time>
      </trkpt>
      <trkpt lat="42.93344" lon="0.24465">
        <ele>1395.97</ele>
        <time>2017-01-17T12:15:58Z</time>
      </trkpt>
      <trkpt lat="42.93339" lon="0.2446">
        <ele>1398.37</ele>
        <time>2017-01-17T12:16:15Z</time>
      </trkpt>
      <trkpt lat="42.9333" lon="0.24458">
        <ele>1400.78</ele>
        <time>2017-01-17T12:16:31Z</time>
      </trkpt>
      <trkpt lat="42.93322" lon="0.24458">
        <ele>1403.18</ele>
        <time>2017-01-17T12:16:46Z</time>
      </trkpt>
      <trkpt lat="42.93312" lon="0.24461">
        <ele>1406.07</ele>
        <time>2017-01-17T12:17:04Z</time>
      </trkpt>
      <trkpt lat="42.93303" lon="0.24463">
        <ele>1408.47</ele>
        <time>2017-01-17T12:17:19Z</time>
      </trkpt>
      <trkpt lat="42.93297" lon="0.24461">
        <ele>1411.35</ele>
        <time>2017-01-17T12:17:36Z</time>
      </trkpt>
      <trkpt lat="42.93287" lon="0.24461">
        <ele>1413.76</ele>
        <time>2017-01-17T12:17:51Z</time>
      </trkpt>
      <trkpt lat="42.93279" lon="0.24464">
        <ele>1416.64</ele>
        <time>2017-01-17T12:18:08Z</time>
      </trkpt>
      <trkpt lat="42.9327" lon="0.24465">
        <ele>1420</ele>
        <time>2017-01-17T12:18:23Z</time>
      </trkpt>
      <trkpt lat="42.93264" lon="0.2446">
        <ele>1421.93</ele>
        <time>2017-01-17T12:18:45Z</time>
      </trkpt>
      <trkpt lat="42.93256" lon="0.24461">
        <ele>1425.77</ele>
        <time>2017-01-17T12:19:16Z</time>
      </trkpt>
      <trkpt lat="42.93245" lon="0.24462">
        <ele>1428.66</ele>
        <time>2017-01-17T12:19:35Z</time>
      </trkpt>
      <trkpt lat="42.93235" lon="0.24466">
        <ele>1432.02</ele>
        <time>2017-01-17T12:20:05Z</time>
      </trkpt>
      <trkpt lat="42.93228" lon="0.24467">
        <ele>1435.39</ele>
        <time>2017-01-17T12:20:26Z</time>
      </trkpt>
      <trkpt lat="42.93222" lon="0.24463">
        <ele>1439.23</ele>
        <time>2017-01-17T12:20:52Z</time>
      </trkpt>
      <trkpt lat="42.93215" lon="0.24463">
        <ele>1441.63</ele>
        <time>2017-01-17T12:21:14Z</time>
      </trkpt>
      <trkpt lat="42.93207" lon="0.24465">
        <ele>1444.52</ele>
        <time>2017-01-17T12:21:36Z</time>
      </trkpt>
      <trkpt lat="42.932" lon="0.2447">
        <ele>1446.92</ele>
        <time>2017-01-17T12:21:54Z</time>
      </trkpt>
      <trkpt lat="42.93199" lon="0.24474">
        <ele>1445.96</ele>
        <time>2017-01-17T12:22:18Z</time>
      </trkpt>
      <trkpt lat="42.93208" lon="0.24478">
        <ele>1445.48</ele>
        <time>2017-01-17T12:22:30Z</time>
      </trkpt>
      <trkpt lat="42.93214" lon="0.24489">
        <ele>1445.48</ele>
        <time>2017-01-17T12:22:43Z</time>
      </trkpt>
      <trkpt lat="42.93214" lon="0.24491">
        <ele>1445</ele>
        <time>2017-01-17T12:23:47Z</time>
      </trkpt>
      <trkpt lat="42.93206" lon="0.24487">
        <ele>1445.48</ele>
        <time>2017-01-17T12:24:01Z</time>
      </trkpt>
      <trkpt lat="42.93205" lon="0.24483">
        <ele>1445</ele>
        <time>2017-01-17T12:24:42Z</time>
      </trkpt>
      <trkpt lat="42.93197" lon="0.24476">
        <ele>1446.92</ele>
        <time>2017-01-17T12:24:55Z</time>
      </trkpt>
      <trkpt lat="42.93198" lon="0.24466">
        <ele>1448.84</ele>
        <time>2017-01-17T12:25:15Z</time>
      </trkpt>
      <trkpt lat="42.93189" lon="0.24457">
        <ele>1448.84</ele>
        <time>2017-01-17T12:25:25Z</time>
      </trkpt>
      <trkpt lat="42.9318" lon="0.24451">
        <ele>1448.84</ele>
        <time>2017-01-17T12:25:36Z</time>
      </trkpt>
      <trkpt lat="42.93172" lon="0.24444">
        <ele>1449.32</ele>
        <time>2017-01-17T12:25:56Z</time>
      </trkpt>
      <trkpt lat="42.93177" lon="0.24449">
        <ele>1448.84</ele>
        <time>2017-01-17T12:26:20Z</time>
      </trkpt>
      <trkpt lat="42.93187" lon="0.24455">
        <ele>1448.36</ele>
        <time>2017-01-17T12:26:35Z</time>
      </trkpt>
      <trkpt lat="42.93195" lon="0.24464">
        <ele>1447.4</ele>
        <time>2017-01-17T12:26:55Z</time>
      </trkpt>
      <trkpt lat="42.93202" lon="0.24469">
        <ele>1446.44</ele>
        <time>2017-01-17T12:27:08Z</time>
      </trkpt>
      <trkpt lat="42.93209" lon="0.24479">
        <ele>1446.44</ele>
        <time>2017-01-17T12:27:25Z</time>
      </trkpt>
      <trkpt lat="42.93212" lon="0.24484">
        <ele>1445.96</ele>
        <time>2017-01-17T12:27:48Z</time>
      </trkpt>
      <trkpt lat="42.93222" lon="0.24491">
        <ele>1445</ele>
        <time>2017-01-17T12:27:58Z</time>
      </trkpt>
      <trkpt lat="42.93229" lon="0.24499">
        <ele>1444.04</ele>
        <time>2017-01-17T12:28:08Z</time>
      </trkpt>
      <trkpt lat="42.93236" lon="0.24508">
        <ele>1443.08</ele>
        <time>2017-01-17T12:28:20Z</time>
      </trkpt>
      <trkpt lat="42.93242" lon="0.24517">
        <ele>1442.6</ele>
        <time>2017-01-17T12:28:33Z</time>
      </trkpt>
      <trkpt lat="42.93247" lon="0.24527">
        <ele>1441.63</ele>
        <time>2017-01-17T12:28:46Z</time>
      </trkpt>
      <trkpt lat="42.93255" lon="0.24534">
        <ele>1440.67</ele>
        <time>2017-01-17T12:28:57Z</time>
      </trkpt>
      <trkpt lat="42.93262" lon="0.24542">
        <ele>1440.19</ele>
        <time>2017-01-17T12:29:09Z</time>
      </trkpt>
      <trkpt lat="42.93268" lon="0.24551">
        <ele>1439.23</ele>
        <time>2017-01-17T12:29:19Z</time>
      </trkpt>
      <trkpt lat="42.93279" lon="0.24559">
        <ele>1439.23</ele>
        <time>2017-01-17T12:29:33Z</time>
      </trkpt>
      <trkpt lat="42.93288" lon="0.24564">
        <ele>1438.27</ele>
        <time>2017-01-17T12:29:47Z</time>
      </trkpt>
      <trkpt lat="42.93292" lon="0.24575">
        <ele>1437.79</ele>
        <time>2017-01-17T12:30:00Z</time>
      </trkpt>
      <trkpt lat="42.93298" lon="0.24584">
        <ele>1437.31</ele>
        <time>2017-01-17T12:30:12Z</time>
      </trkpt>
      <trkpt lat="42.93303" lon="0.24595">
        <ele>1435.87</ele>
        <time>2017-01-17T12:30:24Z</time>
      </trkpt>
      <trkpt lat="42.93308" lon="0.24604">
        <ele>1434.91</ele>
        <time>2017-01-17T12:30:41Z</time>
      </trkpt>
      <trkpt lat="42.93313" lon="0.24615">
        <ele>1433.94</ele>
        <time>2017-01-17T12:30:53Z</time>
      </trkpt>
      <trkpt lat="42.93319" lon="0.24625">
        <ele>1432.98</ele>
        <time>2017-01-17T12:31:05Z</time>
      </trkpt>
      <trkpt lat="42.93326" lon="0.24633">
        <ele>1431.54</ele>
        <time>2017-01-17T12:31:17Z</time>
      </trkpt>
      <trkpt lat="42.93333" lon="0.24641">
        <ele>1430.1</ele>
        <time>2017-01-17T12:31:29Z</time>
      </trkpt>
      <trkpt lat="42.9334" lon="0.24648">
        <ele>1428.18</ele>
        <time>2017-01-17T12:31:41Z</time>
      </trkpt>
      <trkpt lat="42.93349" lon="0.24653">
        <ele>1425.77</ele>
        <time>2017-01-17T12:31:54Z</time>
      </trkpt>
      <trkpt lat="42.93355" lon="0.24662">
        <ele>1424.33</ele>
        <time>2017-01-17T12:32:07Z</time>
      </trkpt>
      <trkpt lat="42.93364" lon="0.24669">
        <ele>1422.41</ele>
        <time>2017-01-17T12:32:23Z</time>
      </trkpt>
      <trkpt lat="42.93372" lon="0.24676">
        <ele>1420.97</ele>
        <time>2017-01-17T12:32:41Z</time>
      </trkpt>
      <trkpt lat="42.9338" lon="0.24683">
        <ele>1419.04</ele>
        <time>2017-01-17T12:32:55Z</time>
      </trkpt>
      <trkpt lat="42.93388" lon="0.24689">
        <ele>1417.6</ele>
        <time>2017-01-17T12:33:06Z</time>
      </trkpt>
      <trkpt lat="42.93396" lon="0.24695">
        <ele>1416.16</ele>
        <time>2017-01-17T12:33:20Z</time>
      </trkpt>
      <trkpt lat="42.93405" lon="0.247">
        <ele>1414.24</ele>
        <time>2017-01-17T12:33:33Z</time>
      </trkpt>
      <trkpt lat="42.93409" lon="0.24708">
        <ele>1413.76</ele>
        <time>2017-01-17T12:34:10Z</time>
      </trkpt>
      <trkpt lat="42.93408" lon="0.24719">
        <ele>1413.28</ele>
        <time>2017-01-17T12:34:30Z</time>
      </trkpt>
      <trkpt lat="42.93413" lon="0.24724">
        <ele>1411.83</ele>
        <time>2017-01-17T12:35:41Z</time>
      </trkpt>
      <trkpt lat="42.93422" lon="0.24731">
        <ele>1409.91</ele>
        <time>2017-01-17T12:36:04Z</time>
      </trkpt>
      <trkpt lat="42.93427" lon="0.24737">
        <ele>1408.47</ele>
        <time>2017-01-17T12:36:17Z</time>
      </trkpt>
      <trkpt lat="42.93434" lon="0.24746">
        <ele>1406.55</ele>
        <time>2017-01-17T12:36:28Z</time>
      </trkpt>
      <trkpt lat="42.93441" lon="0.24755">
        <ele>1405.58</ele>
        <time>2017-01-17T12:36:38Z</time>
      </trkpt>
      <trkpt lat="42.93449" lon="0.24763">
        <ele>1404.62</ele>
        <time>2017-01-17T12:36:48Z</time>
      </trkpt>
      <trkpt lat="42.93457" lon="0.2477">
        <ele>1404.14</ele>
        <time>2017-01-17T12:36:58Z</time>
      </trkpt>
      <trkpt lat="42.93464" lon="0.24778">
        <ele>1403.66</ele>
        <time>2017-01-17T12:37:09Z</time>
      </trkpt>
      <trkpt lat="42.93472" lon="0.24786">
        <ele>1402.22</ele>
        <time>2017-01-17T12:37:21Z</time>
      </trkpt>
      <trkpt lat="42.93479" lon="0.24793">
        <ele>1400.3</ele>
        <time>2017-01-17T12:37:32Z</time>
      </trkpt>
      <trkpt lat="42.93489" lon="0.24798">
        <ele>1398.37</ele>
        <time>2017-01-17T12:37:43Z</time>
      </trkpt>
      <trkpt lat="42.93494" lon="0.24809">
        <ele>1396.93</ele>
        <time>2017-01-17T12:37:55Z</time>
      </trkpt>
      <trkpt lat="42.935" lon="0.2482">
        <ele>1395.49</ele>
        <time>2017-01-17T12:38:07Z</time>
      </trkpt>
      <trkpt lat="42.93503" lon="0.24831">
        <ele>1394.53</ele>
        <time>2017-01-17T12:38:18Z</time>
      </trkpt>
      <trkpt lat="42.93509" lon="0.24839">
        <ele>1393.57</ele>
        <time>2017-01-17T12:38:35Z</time>
      </trkpt>
      <trkpt lat="42.93517" lon="0.24843">
        <ele>1391.65</ele>
        <time>2017-01-17T12:38:48Z</time>
      </trkpt>
      <trkpt lat="42.93527" lon="0.24844">
        <ele>1389.72</ele>
        <time>2017-01-17T12:39:03Z</time>
      </trkpt>
      <trkpt lat="42.93536" lon="0.24852">
        <ele>1389.24</ele>
        <time>2017-01-17T12:39:14Z</time>
      </trkpt>
      <trkpt lat="42.93544" lon="0.24858">
        <ele>1387.32</ele>
        <time>2017-01-17T12:39:26Z</time>
      </trkpt>
      <trkpt lat="42.93554" lon="0.24859">
        <ele>1386.84</ele>
        <time>2017-01-17T12:39:37Z</time>
      </trkpt>
      <trkpt lat="42.93562" lon="0.24864">
        <ele>1386.36</ele>
        <time>2017-01-17T12:39:48Z</time>
      </trkpt>
      <trkpt lat="42.9357" lon="0.2487">
        <ele>1385.88</ele>
        <time>2017-01-17T12:39:59Z</time>
      </trkpt>
      <trkpt lat="42.93577" lon="0.24876">
        <ele>1385.4</ele>
        <time>2017-01-17T12:40:11Z</time>
      </trkpt>
      <trkpt lat="42.93586" lon="0.24882">
        <ele>1384.44</ele>
        <time>2017-01-17T12:40:22Z</time>
      </trkpt>
      <trkpt lat="42.93594" lon="0.24886">
        <ele>1382.51</ele>
        <time>2017-01-17T12:40:33Z</time>
      </trkpt>
      <trkpt lat="42.93604" lon="0.24892">
        <ele>1382.03</ele>
        <time>2017-01-17T12:40:44Z</time>
      </trkpt>
      <trkpt lat="42.93612" lon="0.24899">
        <ele>1381.07</ele>
        <time>2017-01-17T12:40:54Z</time>
      </trkpt>
      <trkpt lat="42.93621" lon="0.24904">
        <ele>1379.63</ele>
        <time>2017-01-17T12:41:06Z</time>
      </trkpt>
      <trkpt lat="42.93629" lon="0.24911">
        <ele>1378.67</ele>
        <time>2017-01-17T12:41:16Z</time>
      </trkpt>
      <trkpt lat="42.93638" lon="0.24916">
        <ele>1378.19</ele>
        <time>2017-01-17T12:41:26Z</time>
      </trkpt>
      <trkpt lat="42.93647" lon="0.24922">
        <ele>1378.19</ele>
        <time>2017-01-17T12:41:38Z</time>
      </trkpt>
      <trkpt lat="42.93656" lon="0.2493">
        <ele>1376.26</ele>
        <time>2017-01-17T12:41:50Z</time>
      </trkpt>
      <trkpt lat="42.93665" lon="0.24935">
        <ele>1375.3</ele>
        <time>2017-01-17T12:42:02Z</time>
      </trkpt>
      <trkpt lat="42.93672" lon="0.2494">
        <ele>1372.9</ele>
        <time>2017-01-17T12:42:19Z</time>
      </trkpt>
      <trkpt lat="42.93681" lon="0.24945">
        <ele>1372.9</ele>
        <time>2017-01-17T12:42:31Z</time>
      </trkpt>
      <trkpt lat="42.93691" lon="0.2495">
        <ele>1372.42</ele>
        <time>2017-01-17T12:42:41Z</time>
      </trkpt>
      <trkpt lat="42.937" lon="0.24952">
        <ele>1370.5</ele>
        <time>2017-01-17T12:42:51Z</time>
      </trkpt>
      <trkpt lat="42.93709" lon="0.24958">
        <ele>1369.54</ele>
        <time>2017-01-17T12:43:01Z</time>
      </trkpt>
      <trkpt lat="42.93717" lon="0.24963">
        <ele>1367.61</ele>
        <time>2017-01-17T12:43:11Z</time>
      </trkpt>
      <trkpt lat="42.93727" lon="0.24969">
        <ele>1366.17</ele>
        <time>2017-01-17T12:43:23Z</time>
      </trkpt>
      <trkpt lat="42.93734" lon="0.24976">
        <ele>1365.21</ele>
        <time>2017-01-17T12:43:34Z</time>
      </trkpt>
      <trkpt lat="42.93745" lon="0.24981">
        <ele>1363.29</ele>
        <time>2017-01-17T12:43:50Z</time>
      </trkpt>
      <trkpt lat="42.93754" lon="0.24987">
        <ele>1361.84</ele>
        <time>2017-01-17T12:44:01Z</time>
      </trkpt>
      <trkpt lat="42.93761" lon="0.24993">
        <ele>1361.36</ele>
        <time>2017-01-17T12:44:11Z</time>
      </trkpt>
      <trkpt lat="42.93769" lon="0.25002">
        <ele>1360.4</ele>
        <time>2017-01-17T12:44:20Z</time>
      </trkpt>
      <trkpt lat="42.93774" lon="0.25011">
        <ele>1359.44</ele>
        <time>2017-01-17T12:44:29Z</time>
      </trkpt>
      <trkpt lat="42.9378" lon="0.25019">
        <ele>1358.48</ele>
        <time>2017-01-17T12:44:39Z</time>
      </trkpt>
      <trkpt lat="42.93786" lon="0.25028">
        <ele>1357.52</ele>
        <time>2017-01-17T12:44:59Z</time>
      </trkpt>
      <trkpt lat="42.93795" lon="0.25034">
        <ele>1355.6</ele>
        <time>2017-01-17T12:45:09Z</time>
      </trkpt>
      <trkpt lat="42.93802" lon="0.25041">
        <ele>1353.67</ele>
        <time>2017-01-17T12:45:19Z</time>
      </trkpt>
      <trkpt lat="42.93807" lon="0.2505">
        <ele>1351.27</ele>
        <time>2017-01-17T12:45:29Z</time>
      </trkpt>
      <trkpt lat="42.93812" lon="0.25061">
        <ele>1349.35</ele>
        <time>2017-01-17T12:45:39Z</time>
      </trkpt>
      <trkpt lat="42.93818" lon="0.25071">
        <ele>1347.43</ele>
        <time>2017-01-17T12:45:49Z</time>
      </trkpt>
      <trkpt lat="42.93827" lon="0.25077">
        <ele>1346.46</ele>
        <time>2017-01-17T12:46:48Z</time>
      </trkpt>
      <trkpt lat="42.93835" lon="0.25084">
        <ele>1345.98</ele>
        <time>2017-01-17T12:46:57Z</time>
      </trkpt>
      <trkpt lat="42.93844" lon="0.2509">
        <ele>1345.5</ele>
        <time>2017-01-17T12:47:08Z</time>
      </trkpt>
      <trkpt lat="42.93852" lon="0.25095">
        <ele>1345.5</ele>
        <time>2017-01-17T12:47:18Z</time>
      </trkpt>
      <trkpt lat="42.93861" lon="0.251">
        <ele>1345.98</ele>
        <time>2017-01-17T12:47:31Z</time>
      </trkpt>
      <trkpt lat="42.93868" lon="0.25107">
        <ele>1345.98</ele>
        <time>2017-01-17T12:47:43Z</time>
      </trkpt>
      <trkpt lat="42.93876" lon="0.25108">
        <ele>1344.06</ele>
        <time>2017-01-17T12:47:53Z</time>
      </trkpt>
      <trkpt lat="42.93883" lon="0.25117">
        <ele>1342.62</ele>
        <time>2017-01-17T12:48:02Z</time>
      </trkpt>
      <trkpt lat="42.9389" lon="0.25126">
        <ele>1342.62</ele>
        <time>2017-01-17T12:48:11Z</time>
      </trkpt>
      <trkpt lat="42.93893" lon="0.25127">
        <ele>1342.14</ele>
        <time>2017-01-17T12:49:22Z</time>
      </trkpt>
      <trkpt lat="42.93902" lon="0.25134">
        <ele>1341.66</ele>
        <time>2017-01-17T12:49:36Z</time>
      </trkpt>
      <trkpt lat="42.9391" lon="0.25137">
        <ele>1342.62</ele>
        <time>2017-01-17T12:49:52Z</time>
      </trkpt>
      <trkpt lat="42.93915" lon="0.25146">
        <ele>1342.62</ele>
        <time>2017-01-17T12:50:05Z</time>
      </trkpt>
      <trkpt lat="42.93922" lon="0.25155">
        <ele>1342.62</ele>
        <time>2017-01-17T12:50:16Z</time>
      </trkpt>
      <trkpt lat="42.93929" lon="0.25164">
        <ele>1341.18</ele>
        <time>2017-01-17T12:50:26Z</time>
      </trkpt>
      <trkpt lat="42.93935" lon="0.25172">
        <ele>1340.7</ele>
        <time>2017-01-17T12:50:35Z</time>
      </trkpt>
      <trkpt lat="42.93941" lon="0.25181">
        <ele>1339.25</ele>
        <time>2017-01-17T12:50:45Z</time>
      </trkpt>
      <trkpt lat="42.9395" lon="0.25186">
        <ele>1337.81</ele>
        <time>2017-01-17T12:50:55Z</time>
      </trkpt>
      <trkpt lat="42.93951" lon="0.25197">
        <ele>1336.85</ele>
        <time>2017-01-17T12:51:17Z</time>
      </trkpt>
      <trkpt lat="42.93956" lon="0.25206">
        <ele>1334.45</ele>
        <time>2017-01-17T12:51:30Z</time>
      </trkpt>
      <trkpt lat="42.93959" lon="0.25219">
        <ele>1331.56</ele>
        <time>2017-01-17T12:51:49Z</time>
      </trkpt>
      <trkpt lat="42.93961" lon="0.25231">
        <ele>1329.64</ele>
        <time>2017-01-17T12:52:01Z</time>
      </trkpt>
      <trkpt lat="42.93966" lon="0.25243">
        <ele>1328.2</ele>
        <time>2017-01-17T12:52:12Z</time>
      </trkpt>
      <trkpt lat="42.93971" lon="0.25254">
        <ele>1326.28</ele>
        <time>2017-01-17T12:52:24Z</time>
      </trkpt>
      <trkpt lat="42.93974" lon="0.25266">
        <ele>1323.87</ele>
        <time>2017-01-17T12:52:36Z</time>
      </trkpt>
      <trkpt lat="42.93976" lon="0.25278">
        <ele>1321.47</ele>
        <time>2017-01-17T12:52:47Z</time>
      </trkpt>
      <trkpt lat="42.9398" lon="0.25289">
        <ele>1319.07</ele>
        <time>2017-01-17T12:53:01Z</time>
      </trkpt>
      <trkpt lat="42.93985" lon="0.253">
        <ele>1317.14</ele>
        <time>2017-01-17T12:53:14Z</time>
      </trkpt>
      <trkpt lat="42.9399" lon="0.25312">
        <ele>1316.18</ele>
        <time>2017-01-17T12:53:27Z</time>
      </trkpt>
      <trkpt lat="42.93994" lon="0.25324">
        <ele>1313.78</ele>
        <time>2017-01-17T12:53:39Z</time>
      </trkpt>
      <trkpt lat="42.93996" lon="0.25336">
        <ele>1312.82</ele>
        <time>2017-01-17T12:53:50Z</time>
      </trkpt>
      <trkpt lat="42.93999" lon="0.25349">
        <ele>1311.86</ele>
        <time>2017-01-17T12:54:02Z</time>
      </trkpt>
      <trkpt lat="42.94003" lon="0.25362">
        <ele>1311.86</ele>
        <time>2017-01-17T12:54:13Z</time>
      </trkpt>
      <trkpt lat="42.94007" lon="0.25373">
        <ele>1311.38</ele>
        <time>2017-01-17T12:54:24Z</time>
      </trkpt>
      <trkpt lat="42.94011" lon="0.25384">
        <ele>1310.41</ele>
        <time>2017-01-17T12:54:35Z</time>
      </trkpt>
      <trkpt lat="42.94014" lon="0.25396">
        <ele>1308.49</ele>
        <time>2017-01-17T12:54:48Z</time>
      </trkpt>
      <trkpt lat="42.94016" lon="0.25409">
        <ele>1305.61</ele>
        <time>2017-01-17T12:55:00Z</time>
      </trkpt>
      <trkpt lat="42.94017" lon="0.25421">
        <ele>1302.72</ele>
        <time>2017-01-17T12:55:13Z</time>
      </trkpt>
      <trkpt lat="42.94016" lon="0.25432">
        <ele>1300.32</ele>
        <time>2017-01-17T12:55:24Z</time>
      </trkpt>
      <trkpt lat="42.94016" lon="0.25445">
        <ele>1297.92</ele>
        <time>2017-01-17T12:55:34Z</time>
      </trkpt>
      <trkpt lat="42.94017" lon="0.25457">
        <ele>1295.99</ele>
        <time>2017-01-17T12:56:03Z</time>
      </trkpt>
      <trkpt lat="42.94022" lon="0.25467">
        <ele>1294.07</ele>
        <time>2017-01-17T12:56:37Z</time>
      </trkpt>
      <trkpt lat="42.94024" lon="0.25472">
        <ele>1293.59</ele>
        <time>2017-01-17T12:59:26Z</time>
      </trkpt>
      <trkpt lat="42.94029" lon="0.25481">
        <ele>1292.63</ele>
        <time>2017-01-17T12:59:37Z</time>
      </trkpt>
      <trkpt lat="42.94037" lon="0.25489">
        <ele>1291.67</ele>
        <time>2017-01-17T12:59:50Z</time>
      </trkpt>
      <trkpt lat="42.94044" lon="0.25495">
        <ele>1288.78</ele>
        <time>2017-01-17T13:00:02Z</time>
      </trkpt>
      <trkpt lat="42.94052" lon="0.25501">
        <ele>1289.27</ele>
        <time>2017-01-17T13:00:16Z</time>
      </trkpt>
      <trkpt lat="42.9406" lon="0.25507">
        <ele>1289.27</ele>
        <time>2017-01-17T13:00:26Z</time>
      </trkpt>
      <trkpt lat="42.94067" lon="0.25513">
        <ele>1289.27</ele>
        <time>2017-01-17T13:00:46Z</time>
      </trkpt>
      <trkpt lat="42.94077" lon="0.25518">
        <ele>1289.75</ele>
        <time>2017-01-17T13:01:05Z</time>
      </trkpt>
      <trkpt lat="42.94083" lon="0.25526">
        <ele>1289.75</ele>
        <time>2017-01-17T13:01:16Z</time>
      </trkpt>
      <trkpt lat="42.94088" lon="0.25536">
        <ele>1288.3</ele>
        <time>2017-01-17T13:01:31Z</time>
      </trkpt>
      <trkpt lat="42.94088" lon="0.25547">
        <ele>1285.9</ele>
        <time>2017-01-17T13:02:07Z</time>
      </trkpt>
      <trkpt lat="42.94089" lon="0.2556">
        <ele>1282.06</ele>
        <time>2017-01-17T13:02:29Z</time>
      </trkpt>
      <trkpt lat="42.94093" lon="0.25571">
        <ele>1280.13</ele>
        <time>2017-01-17T13:02:55Z</time>
      </trkpt>
      <trkpt lat="42.9409" lon="0.2558">
        <ele>1277.25</ele>
        <time>2017-01-17T13:03:09Z</time>
      </trkpt>
      <trkpt lat="42.94088" lon="0.25593">
        <ele>1275.33</ele>
        <time>2017-01-17T13:03:22Z</time>
      </trkpt>
      <trkpt lat="42.94086" lon="0.25605">
        <ele>1272.92</ele>
        <time>2017-01-17T13:03:33Z</time>
      </trkpt>
      <trkpt lat="42.94088" lon="0.25619">
        <ele>1271</ele>
        <time>2017-01-17T13:03:45Z</time>
      </trkpt>
      <trkpt lat="42.94093" lon="0.25631">
        <ele>1270.04</ele>
        <time>2017-01-17T13:03:57Z</time>
      </trkpt>
      <trkpt lat="42.94096" lon="0.25643">
        <ele>1268.6</ele>
        <time>2017-01-17T13:04:08Z</time>
      </trkpt>
      <trkpt lat="42.94102" lon="0.25654">
        <ele>1268.12</ele>
        <time>2017-01-17T13:04:19Z</time>
      </trkpt>
      <trkpt lat="42.94106" lon="0.25665">
        <ele>1272.92</ele>
        <time>2017-01-17T13:04:30Z</time>
      </trkpt>
      <trkpt lat="42.94112" lon="0.25676">
        <ele>1269.08</ele>
        <time>2017-01-17T13:04:41Z</time>
      </trkpt>
      <trkpt lat="42.94117" lon="0.25686">
        <ele>1269.56</ele>
        <time>2017-01-17T13:04:51Z</time>
      </trkpt>
      <trkpt lat="42.94123" lon="0.25695">
        <ele>1269.56</ele>
        <time>2017-01-17T13:05:01Z</time>
      </trkpt>
      <trkpt lat="42.94129" lon="0.25706">
        <ele>1269.08</ele>
        <time>2017-01-17T13:05:11Z</time>
      </trkpt>
      <trkpt lat="42.94134" lon="0.25716">
        <ele>1270.04</ele>
        <time>2017-01-17T13:05:21Z</time>
      </trkpt>
      <trkpt lat="42.94141" lon="0.25725">
        <ele>1271</ele>
        <time>2017-01-17T13:05:32Z</time>
      </trkpt>
      <trkpt lat="42.94147" lon="0.25735">
        <ele>1271.96</ele>
        <time>2017-01-17T13:05:43Z</time>
      </trkpt>
      <trkpt lat="42.94152" lon="0.25746">
        <ele>1273.4</ele>
        <time>2017-01-17T13:05:53Z</time>
      </trkpt>
      <trkpt lat="42.94155" lon="0.25758">
        <ele>1274.36</ele>
        <time>2017-01-17T13:06:07Z</time>
      </trkpt>
      <trkpt lat="42.94158" lon="0.2577">
        <ele>1273.88</ele>
        <time>2017-01-17T13:06:19Z</time>
      </trkpt>
      <trkpt lat="42.9416" lon="0.25781">
        <ele>1274.85</ele>
        <time>2017-01-17T13:06:29Z</time>
      </trkpt>
      <trkpt lat="42.94164" lon="0.25794">
        <ele>1273.4</ele>
        <time>2017-01-17T13:06:41Z</time>
      </trkpt>
      <trkpt lat="42.94168" lon="0.25805">
        <ele>1273.4</ele>
        <time>2017-01-17T13:06:52Z</time>
      </trkpt>
      <trkpt lat="42.94173" lon="0.25816">
        <ele>1272.44</ele>
        <time>2017-01-17T13:07:03Z</time>
      </trkpt>
      <trkpt lat="42.94169" lon="0.25825">
        <ele>1272.92</ele>
        <time>2017-01-17T13:07:20Z</time>
      </trkpt>
      <trkpt lat="42.94161" lon="0.25834">
        <ele>1271</ele>
        <time>2017-01-17T13:07:32Z</time>
      </trkpt>
      <trkpt lat="42.94166" lon="0.25842">
        <ele>1268.6</ele>
        <time>2017-01-17T13:07:44Z</time>
      </trkpt>
      <trkpt lat="42.94174" lon="0.2585">
        <ele>1267.64</ele>
        <time>2017-01-17T13:07:55Z</time>
      </trkpt>
      <trkpt lat="42.94182" lon="0.25854">
        <ele>1267.16</ele>
        <time>2017-01-17T13:08:06Z</time>
      </trkpt>
      <trkpt lat="42.94192" lon="0.25855">
        <ele>1263.79</ele>
        <time>2017-01-17T13:08:17Z</time>
      </trkpt>
      <trkpt lat="42.942" lon="0.25848">
        <ele>1260.43</ele>
        <time>2017-01-17T13:08:27Z</time>
      </trkpt>
      <trkpt lat="42.94209" lon="0.25843">
        <ele>1258.5</ele>
        <time>2017-01-17T13:08:37Z</time>
      </trkpt>
      <trkpt lat="42.9422" lon="0.25845">
        <ele>1258.02</ele>
        <time>2017-01-17T13:08:50Z</time>
      </trkpt>
      <trkpt lat="42.94228" lon="0.25849">
        <ele>1258.02</ele>
        <time>2017-01-17T13:09:01Z</time>
      </trkpt>
      <trkpt lat="42.94237" lon="0.25854">
        <ele>1257.06</ele>
        <time>2017-01-17T13:09:17Z</time>
      </trkpt>
      <trkpt lat="42.94243" lon="0.25862">
        <ele>1257.06</ele>
        <time>2017-01-17T13:09:29Z</time>
      </trkpt>
      <trkpt lat="42.94245" lon="0.25875">
        <ele>1256.1</ele>
        <time>2017-01-17T13:09:41Z</time>
      </trkpt>
      <trkpt lat="42.94248" lon="0.25886">
        <ele>1254.66</ele>
        <time>2017-01-17T13:09:51Z</time>
      </trkpt>
      <trkpt lat="42.94248" lon="0.25899">
        <ele>1253.22</ele>
        <time>2017-01-17T13:10:02Z</time>
      </trkpt>
      <trkpt lat="42.94251" lon="0.2591">
        <ele>1251.77</ele>
        <time>2017-01-17T13:10:11Z</time>
      </trkpt>
      <trkpt lat="42.94254" lon="0.25922">
        <ele>1251.29</ele>
        <time>2017-01-17T13:10:20Z</time>
      </trkpt>
      <trkpt lat="42.94258" lon="0.25932">
        <ele>1250.33</ele>
        <time>2017-01-17T13:10:30Z</time>
      </trkpt>
      <trkpt lat="42.9426" lon="0.25945">
        <ele>1249.37</ele>
        <time>2017-01-17T13:10:40Z</time>
      </trkpt>
      <trkpt lat="42.94262" lon="0.25957">
        <ele>1249.85</ele>
        <time>2017-01-17T13:10:50Z</time>
      </trkpt>
      <trkpt lat="42.94263" lon="0.2597">
        <ele>1249.85</ele>
        <time>2017-01-17T13:11:02Z</time>
      </trkpt>
      <trkpt lat="42.94264" lon="0.25983">
        <ele>1248.89</ele>
        <time>2017-01-17T13:11:12Z</time>
      </trkpt>
      <trkpt lat="42.94265" lon="0.25996">
        <ele>1248.89</ele>
        <time>2017-01-17T13:11:23Z</time>
      </trkpt>
      <trkpt lat="42.94266" lon="0.26009">
        <ele>1247.93</ele>
        <time>2017-01-17T13:11:34Z</time>
      </trkpt>
      <trkpt lat="42.94268" lon="0.26021">
        <ele>1247.45</ele>
        <time>2017-01-17T13:11:55Z</time>
      </trkpt>
      <trkpt lat="42.94268" lon="0.26033">
        <ele>1246.49</ele>
        <time>2017-01-17T13:12:06Z</time>
      </trkpt>
      <trkpt lat="42.94266" lon="0.26045">
        <ele>1246.01</ele>
        <time>2017-01-17T13:12:17Z</time>
      </trkpt>
      <trkpt lat="42.94263" lon="0.26057">
        <ele>1245.04</ele>
        <time>2017-01-17T13:12:28Z</time>
      </trkpt>
      <trkpt lat="42.9426" lon="0.26069">
        <ele>1244.08</ele>
        <time>2017-01-17T13:12:38Z</time>
      </trkpt>
      <trkpt lat="42.94259" lon="0.26082">
        <ele>1243.6</ele>
        <time>2017-01-17T13:12:49Z</time>
      </trkpt>
      <trkpt lat="42.94257" lon="0.26095">
        <ele>1243.12</ele>
        <time>2017-01-17T13:13:01Z</time>
      </trkpt>
      <trkpt lat="42.94254" lon="0.26108">
        <ele>1242.64</ele>
        <time>2017-01-17T13:13:12Z</time>
      </trkpt>
      <trkpt lat="42.94252" lon="0.2612">
        <ele>1243.6</ele>
        <time>2017-01-17T13:13:23Z</time>
      </trkpt>
      <trkpt lat="42.94248" lon="0.26132">
        <ele>1242.64</ele>
        <time>2017-01-17T13:13:34Z</time>
      </trkpt>
      <trkpt lat="42.94245" lon="0.26145">
        <ele>1242.16</ele>
        <time>2017-01-17T13:13:45Z</time>
      </trkpt>
      <trkpt lat="42.94242" lon="0.26157">
        <ele>1242.16</ele>
        <time>2017-01-17T13:13:56Z</time>
      </trkpt>
      <trkpt lat="42.94239" lon="0.2617">
        <ele>1241.68</ele>
        <time>2017-01-17T13:14:07Z</time>
      </trkpt>
      <trkpt lat="42.94238" lon="0.26183">
        <ele>1241.68</ele>
        <time>2017-01-17T13:14:20Z</time>
      </trkpt>
      <trkpt lat="42.94236" lon="0.26196">
        <ele>1242.64</ele>
        <time>2017-01-17T13:14:33Z</time>
      </trkpt>
      <trkpt lat="42.94235" lon="0.26209">
        <ele>1243.6</ele>
        <time>2017-01-17T13:14:46Z</time>
      </trkpt>
      <trkpt lat="42.94234" lon="0.26221">
        <ele>1244.08</ele>
        <time>2017-01-17T13:14:59Z</time>
      </trkpt>
      <trkpt lat="42.94232" lon="0.26233">
        <ele>1245.53</ele>
        <time>2017-01-17T13:15:13Z</time>
      </trkpt>
      <trkpt lat="42.9423" lon="0.26247">
        <ele>1247.45</ele>
        <time>2017-01-17T13:15:26Z</time>
      </trkpt>
      <trkpt lat="42.94228" lon="0.26259">
        <ele>1248.89</ele>
        <time>2017-01-17T13:15:40Z</time>
      </trkpt>
      <trkpt lat="42.94226" lon="0.26267">
        <ele>1247.93</ele>
        <time>2017-01-17T13:16:18Z</time>
      </trkpt>
      <trkpt lat="42.94225" lon="0.26267">
        <ele>1246.97</ele>
        <time>2017-01-17T13:17:45Z</time>
      </trkpt>
      <trkpt lat="42.94226" lon="0.26273">
        <ele>1246.01</ele>
        <time>2017-01-17T13:20:13Z</time>
      </trkpt>
      <trkpt lat="42.94226" lon="0.26277">
        <ele>1245.53</ele>
        <time>2017-01-17T13:22:55Z</time>
      </trkpt>
      <trkpt lat="42.94228" lon="0.26291">
        <ele>1243.6</ele>
        <time>2017-01-17T13:23:08Z</time>
      </trkpt>
      <trkpt lat="42.94226" lon="0.26304">
        <ele>1242.16</ele>
        <time>2017-01-17T13:23:19Z</time>
      </trkpt>
      <trkpt lat="42.94224" lon="0.26315">
        <ele>1241.2</ele>
        <time>2017-01-17T13:23:52Z</time>
      </trkpt>
      <trkpt lat="42.94221" lon="0.26327">
        <ele>1239.76</ele>
        <time>2017-01-17T13:24:05Z</time>
      </trkpt>
      <trkpt lat="42.94222" lon="0.26338">
        <ele>1238.32</ele>
        <time>2017-01-17T13:24:17Z</time>
      </trkpt>
      <trkpt lat="42.94217" lon="0.26348">
        <ele>1235.91</ele>
        <time>2017-01-17T13:24:30Z</time>
      </trkpt>
      <trkpt lat="42.9421" lon="0.26357">
        <ele>1234.47</ele>
        <time>2017-01-17T13:24:42Z</time>
      </trkpt>
      <trkpt lat="42.94211" lon="0.2637">
        <ele>1232.07</ele>
        <time>2017-01-17T13:24:57Z</time>
      </trkpt>
      <trkpt lat="42.94216" lon="0.26382">
        <ele>1229.66</ele>
        <time>2017-01-17T13:25:15Z</time>
      </trkpt>
      <trkpt lat="42.94219" lon="0.26394">
        <ele>1226.78</ele>
        <time>2017-01-17T13:25:31Z</time>
      </trkpt>
      <trkpt lat="42.94227" lon="0.26402">
        <ele>1224.38</ele>
        <time>2017-01-17T13:25:48Z</time>
      </trkpt>
      <trkpt lat="42.94232" lon="0.26412">
        <ele>1221.01</ele>
        <time>2017-01-17T13:26:03Z</time>
      </trkpt>
      <trkpt lat="42.94237" lon="0.26424">
        <ele>1218.13</ele>
        <time>2017-01-17T13:26:19Z</time>
      </trkpt>
      <trkpt lat="42.9424" lon="0.26434">
        <ele>1216.69</ele>
        <time>2017-01-17T13:26:30Z</time>
      </trkpt>
      <trkpt lat="42.9424" lon="0.26447">
        <ele>1214.28</ele>
        <time>2017-01-17T13:26:40Z</time>
      </trkpt>
      <trkpt lat="42.94232" lon="0.26455">
        <ele>1214.28</ele>
        <time>2017-01-17T13:26:50Z</time>
      </trkpt>
      <trkpt lat="42.94225" lon="0.26463">
        <ele>1213.8</ele>
        <time>2017-01-17T13:27:00Z</time>
      </trkpt>
      <trkpt lat="42.94218" lon="0.26473">
        <ele>1213.32</ele>
        <time>2017-01-17T13:27:10Z</time>
      </trkpt>
      <trkpt lat="42.94209" lon="0.26479">
        <ele>1212.84</ele>
        <time>2017-01-17T13:27:21Z</time>
      </trkpt>
      <trkpt lat="42.94199" lon="0.26486">
        <ele>1212.84</ele>
        <time>2017-01-17T13:27:34Z</time>
      </trkpt>
      <trkpt lat="42.94191" lon="0.26494">
        <ele>1213.32</ele>
        <time>2017-01-17T13:27:47Z</time>
      </trkpt>
      <trkpt lat="42.94181" lon="0.26505">
        <ele>1212.84</ele>
        <time>2017-01-17T13:28:05Z</time>
      </trkpt>
      <trkpt lat="42.94172" lon="0.26513">
        <ele>1213.32</ele>
        <time>2017-01-17T13:28:21Z</time>
      </trkpt>
      <trkpt lat="42.94162" lon="0.26523">
        <ele>1213.8</ele>
        <time>2017-01-17T13:28:58Z</time>
      </trkpt>
      <trkpt lat="42.94155" lon="0.26532">
        <ele>1214.28</ele>
        <time>2017-01-17T13:29:14Z</time>
      </trkpt>
      <trkpt lat="42.94148" lon="0.26541">
        <ele>1213.8</ele>
        <time>2017-01-17T13:29:28Z</time>
      </trkpt>
      <trkpt lat="42.94141" lon="0.26549">
        <ele>1213.8</ele>
        <time>2017-01-17T13:29:42Z</time>
      </trkpt>
      <trkpt lat="42.94134" lon="0.2656">
        <ele>1213.32</ele>
        <time>2017-01-17T13:29:58Z</time>
      </trkpt>
      <trkpt lat="42.94128" lon="0.26569">
        <ele>1213.8</ele>
        <time>2017-01-17T13:30:12Z</time>
      </trkpt>
      <trkpt lat="42.94123" lon="0.26582">
        <ele>1213.32</ele>
        <time>2017-01-17T13:30:28Z</time>
      </trkpt>
      <trkpt lat="42.94115" lon="0.26587">
        <ele>1212.36</ele>
        <time>2017-01-17T13:30:43Z</time>
      </trkpt>
      <trkpt lat="42.94104" lon="0.26579">
        <ele>1211.4</ele>
        <time>2017-01-17T13:31:01Z</time>
      </trkpt>
      <trkpt lat="42.94099" lon="0.26566">
        <ele>1210.44</ele>
        <time>2017-01-17T13:31:18Z</time>
      </trkpt>
      <trkpt lat="42.94092" lon="0.26548">
        <ele>1209.96</ele>
        <time>2017-01-17T13:31:33Z</time>
      </trkpt>
      <trkpt lat="42.94091" lon="0.26531">
        <ele>1208.51</ele>
        <time>2017-01-17T13:31:49Z</time>
      </trkpt>
      <trkpt lat="42.94087" lon="0.26518">
        <ele>1207.55</ele>
        <time>2017-01-17T13:32:01Z</time>
      </trkpt>
      <trkpt lat="42.94079" lon="0.26509">
        <ele>1206.59</ele>
        <time>2017-01-17T13:32:13Z</time>
      </trkpt>
      <trkpt lat="42.94069" lon="0.26504">
        <ele>1205.15</ele>
        <time>2017-01-17T13:32:24Z</time>
      </trkpt>
      <trkpt lat="42.94058" lon="0.26502">
        <ele>1204.19</ele>
        <time>2017-01-17T13:32:36Z</time>
      </trkpt>
      <trkpt lat="42.94049" lon="0.265">
        <ele>1203.71</ele>
        <time>2017-01-17T13:32:47Z</time>
      </trkpt>
      <trkpt lat="42.94038" lon="0.26503">
        <ele>1202.75</ele>
        <time>2017-01-17T13:33:00Z</time>
      </trkpt>
      <trkpt lat="42.94025" lon="0.26499">
        <ele>1201.79</ele>
        <time>2017-01-17T13:33:15Z</time>
      </trkpt>
      <trkpt lat="42.94015" lon="0.26492">
        <ele>1201.79</ele>
        <time>2017-01-17T13:33:35Z</time>
      </trkpt>
      <trkpt lat="42.94007" lon="0.26483">
        <ele>1201.3</ele>
        <time>2017-01-17T13:33:50Z</time>
      </trkpt>
      <trkpt lat="42.94" lon="0.2647">
        <ele>1200.82</ele>
        <time>2017-01-17T13:34:02Z</time>
      </trkpt>
      <trkpt lat="42.93993" lon="0.26458">
        <ele>1199.86</ele>
        <time>2017-01-17T13:34:12Z</time>
      </trkpt>
      <trkpt lat="42.93986" lon="0.26448">
        <ele>1199.38</ele>
        <time>2017-01-17T13:34:22Z</time>
      </trkpt>
      <trkpt lat="42.93979" lon="0.2644">
        <ele>1198.42</ele>
        <time>2017-01-17T13:34:31Z</time>
      </trkpt>
      <trkpt lat="42.9397" lon="0.26436">
        <ele>1197.94</ele>
        <time>2017-01-17T13:34:46Z</time>
      </trkpt>
      <trkpt lat="42.93962" lon="0.26442">
        <ele>1197.46</ele>
        <time>2017-01-17T13:34:58Z</time>
      </trkpt>
      <trkpt lat="42.93953" lon="0.2645">
        <ele>1196.98</ele>
        <time>2017-01-17T13:35:10Z</time>
      </trkpt>
      <trkpt lat="42.93947" lon="0.26461">
        <ele>1196.5</ele>
        <time>2017-01-17T13:35:22Z</time>
      </trkpt>
      <trkpt lat="42.93942" lon="0.26475">
        <ele>1196.5</ele>
        <time>2017-01-17T13:35:36Z</time>
      </trkpt>
      <trkpt lat="42.93939" lon="0.26488">
        <ele>1196.98</ele>
        <time>2017-01-17T13:35:49Z</time>
      </trkpt>
      <trkpt lat="42.93933" lon="0.26502">
        <ele>1196.5</ele>
        <time>2017-01-17T13:36:01Z</time>
      </trkpt>
      <trkpt lat="42.93927" lon="0.26514">
        <ele>1196.02</ele>
        <time>2017-01-17T13:36:13Z</time>
      </trkpt>
      <trkpt lat="42.93921" lon="0.26525">
        <ele>1195.06</ele>
        <time>2017-01-17T13:36:26Z</time>
      </trkpt>
      <trkpt lat="42.93915" lon="0.26529">
        <ele>1195.06</ele>
        <time>2017-01-17T13:37:18Z</time>
      </trkpt>
      <trkpt lat="42.93906" lon="0.26521">
        <ele>1193.13</ele>
        <time>2017-01-17T13:37:31Z</time>
      </trkpt>
      <trkpt lat="42.93901" lon="0.26509">
        <ele>1192.17</ele>
        <time>2017-01-17T13:37:43Z</time>
      </trkpt>
      <trkpt lat="42.93898" lon="0.26497">
        <ele>1191.21</ele>
        <time>2017-01-17T13:37:56Z</time>
      </trkpt>
      <trkpt lat="42.9389" lon="0.26483">
        <ele>1190.73</ele>
        <time>2017-01-17T13:38:13Z</time>
      </trkpt>
      <trkpt lat="42.93883" lon="0.26469">
        <ele>1190.25</ele>
        <time>2017-01-17T13:38:29Z</time>
      </trkpt>
      <trkpt lat="42.93875" lon="0.2646">
        <ele>1190.25</ele>
        <time>2017-01-17T13:38:43Z</time>
      </trkpt>
      <trkpt lat="42.93866" lon="0.26449">
        <ele>1190.73</ele>
        <time>2017-01-17T13:39:03Z</time>
      </trkpt>
      <trkpt lat="42.93854" lon="0.26449">
        <ele>1190.73</ele>
        <time>2017-01-17T13:39:24Z</time>
      </trkpt>
      <trkpt lat="42.9385" lon="0.26467">
        <ele>1192.17</ele>
        <time>2017-01-17T13:39:42Z</time>
      </trkpt>
      <trkpt lat="42.93844" lon="0.26484">
        <ele>1193.61</ele>
        <time>2017-01-17T13:39:57Z</time>
      </trkpt>
      <trkpt lat="42.93843" lon="0.26496">
        <ele>1192.65</ele>
        <time>2017-01-17T13:40:12Z</time>
      </trkpt>
      <trkpt lat="42.9384" lon="0.26508">
        <ele>1191.69</ele>
        <time>2017-01-17T13:40:26Z</time>
      </trkpt>
      <trkpt lat="42.93837" lon="0.26519">
        <ele>1191.21</ele>
        <time>2017-01-17T13:40:37Z</time>
      </trkpt>
      <trkpt lat="42.93834" lon="0.26531">
        <ele>1190.73</ele>
        <time>2017-01-17T13:40:47Z</time>
      </trkpt>
      <trkpt lat="42.93831" lon="0.26544">
        <ele>1190.25</ele>
        <time>2017-01-17T13:40:58Z</time>
      </trkpt>
      <trkpt lat="42.93829" lon="0.26556">
        <ele>1190.25</ele>
        <time>2017-01-17T13:41:13Z</time>
      </trkpt>
      <trkpt lat="42.93828" lon="0.26566">
        <ele>1190.25</ele>
        <time>2017-01-17T13:41:38Z</time>
      </trkpt>
      <trkpt lat="42.93824" lon="0.26579">
        <ele>1190.25</ele>
        <time>2017-01-17T13:41:50Z</time>
      </trkpt>
      <trkpt lat="42.93821" lon="0.26592">
        <ele>1190.73</ele>
        <time>2017-01-17T13:42:02Z</time>
      </trkpt>
      <trkpt lat="42.93818" lon="0.26601">
        <ele>1190.25</ele>
        <time>2017-01-17T13:42:29Z</time>
      </trkpt>
      <trkpt lat="42.93816" lon="0.26609">
        <ele>1190.25</ele>
        <time>2017-01-17T13:43:50Z</time>
      </trkpt>
      <trkpt lat="42.93814" lon="0.26614">
        <ele>1189.29</ele>
        <time>2017-01-17T13:45:33Z</time>
      </trkpt>
      <trkpt lat="42.93809" lon="0.26627">
        <ele>1189.29</ele>
        <time>2017-01-17T13:45:43Z</time>
      </trkpt>
      <trkpt lat="42.93803" lon="0.26637">
        <ele>1189.29</ele>
        <time>2017-01-17T13:45:54Z</time>
      </trkpt>
      <trkpt lat="42.93798" lon="0.26647">
        <ele>1189.29</ele>
        <time>2017-01-17T13:46:04Z</time>
      </trkpt>
      <trkpt lat="42.93793" lon="0.26648">
        <ele>1189.77</ele>
        <time>2017-01-17T13:48:04Z</time>
      </trkpt>
      <trkpt lat="42.93795" lon="0.26634">
        <ele>1189.77</ele>
        <time>2017-01-17T13:50:56Z</time>
      </trkpt>
      <trkpt lat="42.93788" lon="0.26632">
        <ele>1188.33</ele>
        <time>2017-01-17T13:51:08Z</time>
      </trkpt>
      <trkpt lat="42.9378" lon="0.26637">
        <ele>1187.85</ele>
        <time>2017-01-17T13:51:19Z</time>
      </trkpt>
      <trkpt lat="42.93772" lon="0.26646">
        <ele>1185.44</ele>
        <time>2017-01-17T13:51:30Z</time>
      </trkpt>
      <trkpt lat="42.93765" lon="0.26653">
        <ele>1183.52</ele>
        <time>2017-01-17T13:51:39Z</time>
      </trkpt>
      <trkpt lat="42.93761" lon="0.26664">
        <ele>1181.6</ele>
        <time>2017-01-17T13:51:49Z</time>
      </trkpt>
      <trkpt lat="42.93759" lon="0.26675">
        <ele>1179.67</ele>
        <time>2017-01-17T13:52:02Z</time>
      </trkpt>
      <trkpt lat="42.93755" lon="0.26678">
        <ele>1180.16</ele>
        <time>2017-01-17T13:52:48Z</time>
      </trkpt>
      <trkpt lat="42.93757" lon="0.26679">
        <ele>1180.16</ele>
        <time>2017-01-17T13:53:57Z</time>
      </trkpt>
      <trkpt lat="42.93756" lon="0.26691">
        <ele>1178.71</ele>
        <time>2017-01-17T13:54:12Z</time>
      </trkpt>
      <trkpt lat="42.93752" lon="0.26703">
        <ele>1177.75</ele>
        <time>2017-01-17T13:54:22Z</time>
      </trkpt>
      <trkpt lat="42.93748" lon="0.26715">
        <ele>1176.79</ele>
        <time>2017-01-17T13:54:31Z</time>
      </trkpt>
      <trkpt lat="42.93746" lon="0.26727">
        <ele>1175.35</ele>
        <time>2017-01-17T13:54:40Z</time>
      </trkpt>
      <trkpt lat="42.93743" lon="0.26739">
        <ele>1174.87</ele>
        <time>2017-01-17T13:54:49Z</time>
      </trkpt>
      <trkpt lat="42.93742" lon="0.26751">
        <ele>1173.91</ele>
        <time>2017-01-17T13:55:03Z</time>
      </trkpt>
      <trkpt lat="42.9374" lon="0.26764">
        <ele>1172.95</ele>
        <time>2017-01-17T13:55:12Z</time>
      </trkpt>
      <trkpt lat="42.93739" lon="0.26776">
        <ele>1172.47</ele>
        <time>2017-01-17T13:55:23Z</time>
      </trkpt>
      <trkpt lat="42.93738" lon="0.26788">
        <ele>1171.98</ele>
        <time>2017-01-17T13:55:33Z</time>
      </trkpt>
      <trkpt lat="42.93737" lon="0.26801">
        <ele>1171.5</ele>
        <time>2017-01-17T13:55:43Z</time>
      </trkpt>
      <trkpt lat="42.93736" lon="0.26814">
        <ele>1171.02</ele>
        <time>2017-01-17T13:55:54Z</time>
      </trkpt>
      <trkpt lat="42.93733" lon="0.26827">
        <ele>1170.54</ele>
        <time>2017-01-17T13:56:04Z</time>
      </trkpt>
      <trkpt lat="42.93732" lon="0.2684">
        <ele>1169.58</ele>
        <time>2017-01-17T13:56:14Z</time>
      </trkpt>
      <trkpt lat="42.93731" lon="0.26853">
        <ele>1169.1</ele>
        <time>2017-01-17T13:56:24Z</time>
      </trkpt>
      <trkpt lat="42.93729" lon="0.26866">
        <ele>1168.14</ele>
        <time>2017-01-17T13:56:35Z</time>
      </trkpt>
      <trkpt lat="42.93728" lon="0.26879">
        <ele>1170.54</ele>
        <time>2017-01-17T13:56:46Z</time>
      </trkpt>
      <trkpt lat="42.93729" lon="0.2689">
        <ele>1166.7</ele>
        <time>2017-01-17T13:56:56Z</time>
      </trkpt>
      <trkpt lat="42.93729" lon="0.26903">
        <ele>1166.22</ele>
        <time>2017-01-17T13:57:08Z</time>
      </trkpt>
      <trkpt lat="42.93731" lon="0.26915">
        <ele>1165.74</ele>
        <time>2017-01-17T13:57:19Z</time>
      </trkpt>
      <trkpt lat="42.93736" lon="0.26926">
        <ele>1162.85</ele>
        <time>2017-01-17T13:57:30Z</time>
      </trkpt>
      <trkpt lat="42.9374" lon="0.26938">
        <ele>1165.26</ele>
        <time>2017-01-17T13:57:40Z</time>
      </trkpt>
      <trkpt lat="42.93744" lon="0.2695">
        <ele>1163.81</ele>
        <time>2017-01-17T13:57:50Z</time>
      </trkpt>
      <trkpt lat="42.93749" lon="0.2696">
        <ele>1163.33</ele>
        <time>2017-01-17T13:58:00Z</time>
      </trkpt>
      <trkpt lat="42.93755" lon="0.2697">
        <ele>1162.85</ele>
        <time>2017-01-17T13:58:10Z</time>
      </trkpt>
      <trkpt lat="42.93761" lon="0.26977">
        <ele>1162.37</ele>
        <time>2017-01-17T13:58:22Z</time>
      </trkpt>
      <trkpt lat="42.93769" lon="0.26983">
        <ele>1162.37</ele>
        <time>2017-01-17T13:58:31Z</time>
      </trkpt>
      <trkpt lat="42.93778" lon="0.26987">
        <ele>1162.37</ele>
        <time>2017-01-17T13:58:40Z</time>
      </trkpt>
      <trkpt lat="42.93788" lon="0.26988">
        <ele>1161.89</ele>
        <time>2017-01-17T13:58:49Z</time>
      </trkpt>
      <trkpt lat="42.93798" lon="0.26989">
        <ele>1161.41</ele>
        <time>2017-01-17T13:58:57Z</time>
      </trkpt>
      <trkpt lat="42.93807" lon="0.26989">
        <ele>1159.97</ele>
        <time>2017-01-17T13:59:05Z</time>
      </trkpt>
      <trkpt lat="42.93816" lon="0.26993">
        <ele>1158.53</ele>
        <time>2017-01-17T13:59:14Z</time>
      </trkpt>
      <trkpt lat="42.93825" lon="0.26998">
        <ele>1157.08</ele>
        <time>2017-01-17T13:59:23Z</time>
      </trkpt>
      <trkpt lat="42.93834" lon="0.27004">
        <ele>1156.12</ele>
        <time>2017-01-17T13:59:32Z</time>
      </trkpt>
      <trkpt lat="42.93841" lon="0.27011">
        <ele>1155.64</ele>
        <time>2017-01-17T13:59:41Z</time>
      </trkpt>
      <trkpt lat="42.93849" lon="0.2702">
        <ele>1155.16</ele>
        <time>2017-01-17T13:59:50Z</time>
      </trkpt>
      <trkpt lat="42.93857" lon="0.27028">
        <ele>1155.16</ele>
        <time>2017-01-17T13:59:59Z</time>
      </trkpt>
      <trkpt lat="42.93865" lon="0.27037">
        <ele>1155.16</ele>
        <time>2017-01-17T14:00:08Z</time>
      </trkpt>
      <trkpt lat="42.93873" lon="0.27044">
        <ele>1154.2</ele>
        <time>2017-01-17T14:00:17Z</time>
      </trkpt>
      <trkpt lat="42.93882" lon="0.27048">
        <ele>1153.24</ele>
        <time>2017-01-17T14:00:25Z</time>
      </trkpt>
      <trkpt lat="42.93891" lon="0.27052">
        <ele>1152.28</ele>
        <time>2017-01-17T14:00:34Z</time>
      </trkpt>
      <trkpt lat="42.939" lon="0.27058">
        <ele>1150.84</ele>
        <time>2017-01-17T14:00:42Z</time>
      </trkpt>
      <trkpt lat="42.93909" lon="0.27065">
        <ele>1149.87</ele>
        <time>2017-01-17T14:00:50Z</time>
      </trkpt>
      <trkpt lat="42.93917" lon="0.27071">
        <ele>1148.91</ele>
        <time>2017-01-17T14:00:58Z</time>
      </trkpt>
      <trkpt lat="42.93926" lon="0.27075">
        <ele>1147.95</ele>
        <time>2017-01-17T14:01:06Z</time>
      </trkpt>
      <trkpt lat="42.93935" lon="0.27079">
        <ele>1146.99</ele>
        <time>2017-01-17T14:01:14Z</time>
      </trkpt>
      <trkpt lat="42.93944" lon="0.27084">
        <ele>1146.03</ele>
        <time>2017-01-17T14:01:22Z</time>
      </trkpt>
      <trkpt lat="42.93953" lon="0.2709">
        <ele>1146.03</ele>
        <time>2017-01-17T14:01:31Z</time>
      </trkpt>
      <trkpt lat="42.93962" lon="0.27096">
        <ele>1145.55</ele>
        <time>2017-01-17T14:01:39Z</time>
      </trkpt>
      <trkpt lat="42.93971" lon="0.27099">
        <ele>1145.07</ele>
        <time>2017-01-17T14:01:47Z</time>
      </trkpt>
      <trkpt lat="42.93981" lon="0.27101">
        <ele>1144.59</ele>
        <time>2017-01-17T14:01:55Z</time>
      </trkpt>
      <trkpt lat="42.9399" lon="0.27103">
        <ele>1143.63</ele>
        <time>2017-01-17T14:02:03Z</time>
      </trkpt>
      <trkpt lat="42.94" lon="0.27107">
        <ele>1143.63</ele>
        <time>2017-01-17T14:02:12Z</time>
      </trkpt>
      <trkpt lat="42.9401" lon="0.27114">
        <ele>1144.11</ele>
        <time>2017-01-17T14:02:21Z</time>
      </trkpt>
      <trkpt lat="42.94018" lon="0.27122">
        <ele>1144.11</ele>
        <time>2017-01-17T14:02:29Z</time>
      </trkpt>
      <trkpt lat="42.94024" lon="0.27132">
        <ele>1143.14</ele>
        <time>2017-01-17T14:02:37Z</time>
      </trkpt>
      <trkpt lat="42.9403" lon="0.27141">
        <ele>1142.18</ele>
        <time>2017-01-17T14:02:45Z</time>
      </trkpt>
      <trkpt lat="42.94036" lon="0.27153">
        <ele>1140.74</ele>
        <time>2017-01-17T14:02:54Z</time>
      </trkpt>
      <trkpt lat="42.94038" lon="0.27168">
        <ele>1139.3</ele>
        <time>2017-01-17T14:03:03Z</time>
      </trkpt>
      <trkpt lat="42.94039" lon="0.27181">
        <ele>1138.34</ele>
        <time>2017-01-17T14:03:11Z</time>
      </trkpt>
      <trkpt lat="42.94041" lon="0.27193">
        <ele>1137.38</ele>
        <time>2017-01-17T14:03:20Z</time>
      </trkpt>
      <trkpt lat="42.94045" lon="0.27206">
        <ele>1136.42</ele>
        <time>2017-01-17T14:03:29Z</time>
      </trkpt>
      <trkpt lat="42.94052" lon="0.27215">
        <ele>1134.49</ele>
        <time>2017-01-17T14:03:38Z</time>
      </trkpt>
      <trkpt lat="42.94059" lon="0.27223">
        <ele>1132.09</ele>
        <time>2017-01-17T14:03:48Z</time>
      </trkpt>
      <trkpt lat="42.94067" lon="0.27229">
        <ele>1129.69</ele>
        <time>2017-01-17T14:03:58Z</time>
      </trkpt>
      <trkpt lat="42.94073" lon="0.27234">
        <ele>1128.24</ele>
        <time>2017-01-17T14:04:21Z</time>
      </trkpt>
      <trkpt lat="42.94082" lon="0.27238">
        <ele>1126.8</ele>
        <time>2017-01-17T14:04:30Z</time>
      </trkpt>
      <trkpt lat="42.94091" lon="0.27245">
        <ele>1125.36</ele>
        <time>2017-01-17T14:04:38Z</time>
      </trkpt>
      <trkpt lat="42.94099" lon="0.27251">
        <ele>1123.92</ele>
        <time>2017-01-17T14:04:46Z</time>
      </trkpt>
      <trkpt lat="42.94108" lon="0.27254">
        <ele>1122.48</ele>
        <time>2017-01-17T14:04:54Z</time>
      </trkpt>
      <trkpt lat="42.9412" lon="0.27256">
        <ele>1122</ele>
        <time>2017-01-17T14:05:03Z</time>
      </trkpt>
      <trkpt lat="42.94129" lon="0.27263">
        <ele>1121.52</ele>
        <time>2017-01-17T14:05:12Z</time>
      </trkpt>
      <trkpt lat="42.94137" lon="0.27271">
        <ele>1120.07</ele>
        <time>2017-01-17T14:05:20Z</time>
      </trkpt>
      <trkpt lat="42.94143" lon="0.27281">
        <ele>1119.11</ele>
        <time>2017-01-17T14:05:29Z</time>
      </trkpt>
      <trkpt lat="42.9415" lon="0.2729">
        <ele>1119.11</ele>
        <time>2017-01-17T14:05:37Z</time>
      </trkpt>
      <trkpt lat="42.94154" lon="0.27302">
        <ele>1118.63</ele>
        <time>2017-01-17T14:05:45Z</time>
      </trkpt>
      <trkpt lat="42.94153" lon="0.27314">
        <ele>1117.67</ele>
        <time>2017-01-17T14:05:53Z</time>
      </trkpt>
      <trkpt lat="42.94148" lon="0.27325">
        <ele>1117.19</ele>
        <time>2017-01-17T14:06:01Z</time>
      </trkpt>
      <trkpt lat="42.94143" lon="0.27338">
        <ele>1118.15</ele>
        <time>2017-01-17T14:06:11Z</time>
      </trkpt>
      <trkpt lat="42.94139" lon="0.2735">
        <ele>1118.15</ele>
        <time>2017-01-17T14:06:21Z</time>
      </trkpt>
      <trkpt lat="42.94133" lon="0.2736">
        <ele>1117.19</ele>
        <time>2017-01-17T14:06:32Z</time>
      </trkpt>
      <trkpt lat="42.94128" lon="0.2737">
        <ele>1116.71</ele>
        <time>2017-01-17T14:06:43Z</time>
      </trkpt>
      <trkpt lat="42.9412" lon="0.2738">
        <ele>1115.75</ele>
        <time>2017-01-17T14:06:54Z</time>
      </trkpt>
      <trkpt lat="42.94111" lon="0.27387">
        <ele>1115.27</ele>
        <time>2017-01-17T14:07:05Z</time>
      </trkpt>
      <trkpt lat="42.94108" lon="0.27391">
        <ele>1115.27</ele>
        <time>2017-01-17T14:07:25Z</time>
      </trkpt>
      <trkpt lat="42.94115" lon="0.27402">
        <ele>1114.31</ele>
        <time>2017-01-17T14:07:35Z</time>
      </trkpt>
      <trkpt lat="42.9412" lon="0.27415">
        <ele>1112.86</ele>
        <time>2017-01-17T14:07:45Z</time>
      </trkpt>
      <trkpt lat="42.94124" lon="0.27426">
        <ele>1111.42</ele>
        <time>2017-01-17T14:07:54Z</time>
      </trkpt>
      <trkpt lat="42.94129" lon="0.27436">
        <ele>1110.94</ele>
        <time>2017-01-17T14:08:02Z</time>
      </trkpt>
      <trkpt lat="42.94134" lon="0.27447">
        <ele>1110.46</ele>
        <time>2017-01-17T14:08:11Z</time>
      </trkpt>
      <trkpt lat="42.9414" lon="0.27457">
        <ele>1109.98</ele>
        <time>2017-01-17T14:08:21Z</time>
      </trkpt>
      <trkpt lat="42.94143" lon="0.27468">
        <ele>1108.54</ele>
        <time>2017-01-17T14:08:38Z</time>
      </trkpt>
      <trkpt lat="42.94147" lon="0.2748">
        <ele>1108.54</ele>
        <time>2017-01-17T14:08:49Z</time>
      </trkpt>
      <trkpt lat="42.94155" lon="0.27489">
        <ele>1108.06</ele>
        <time>2017-01-17T14:09:00Z</time>
      </trkpt>
      <trkpt lat="42.94161" lon="0.27499">
        <ele>1107.58</ele>
        <time>2017-01-17T14:09:09Z</time>
      </trkpt>
      <trkpt lat="42.94165" lon="0.2751">
        <ele>1106.61</ele>
        <time>2017-01-17T14:09:18Z</time>
      </trkpt>
      <trkpt lat="42.9417" lon="0.27521">
        <ele>1105.65</ele>
        <time>2017-01-17T14:09:27Z</time>
      </trkpt>
      <trkpt lat="42.94175" lon="0.27532">
        <ele>1105.65</ele>
        <time>2017-01-17T14:09:38Z</time>
      </trkpt>
      <trkpt lat="42.94181" lon="0.27542">
        <ele>1105.17</ele>
        <time>2017-01-17T14:10:04Z</time>
      </trkpt>
      <trkpt lat="42.94187" lon="0.2755">
        <ele>1104.69</ele>
        <time>2017-01-17T14:10:16Z</time>
      </trkpt>
      <trkpt lat="42.94195" lon="0.27556">
        <ele>1103.73</ele>
        <time>2017-01-17T14:10:26Z</time>
      </trkpt>
      <trkpt lat="42.94203" lon="0.27563">
        <ele>1103.25</ele>
        <time>2017-01-17T14:10:36Z</time>
      </trkpt>
      <trkpt lat="42.94212" lon="0.27569">
        <ele>1102.29</ele>
        <time>2017-01-17T14:10:45Z</time>
      </trkpt>
      <trkpt lat="42.94218" lon="0.27576">
        <ele>1100.37</ele>
        <time>2017-01-17T14:10:54Z</time>
      </trkpt>
      <trkpt lat="42.94226" lon="0.27585">
        <ele>1100.85</ele>
        <time>2017-01-17T14:11:05Z</time>
      </trkpt>
      <trkpt lat="42.94232" lon="0.27593">
        <ele>1099.89</ele>
        <time>2017-01-17T14:11:14Z</time>
      </trkpt>
      <trkpt lat="42.94238" lon="0.27602">
        <ele>1098.92</ele>
        <time>2017-01-17T14:11:23Z</time>
      </trkpt>
      <trkpt lat="42.94243" lon="0.27614">
        <ele>1098.44</ele>
        <time>2017-01-17T14:11:32Z</time>
      </trkpt>
      <trkpt lat="42.94248" lon="0.27626">
        <ele>1097.48</ele>
        <time>2017-01-17T14:11:41Z</time>
      </trkpt>
      <trkpt lat="42.94251" lon="0.27637">
        <ele>1096.04</ele>
        <time>2017-01-17T14:11:51Z</time>
      </trkpt>
      <trkpt lat="42.94254" lon="0.2765">
        <ele>1094.6</ele>
        <time>2017-01-17T14:12:01Z</time>
      </trkpt>
      <trkpt lat="42.9426" lon="0.27661">
        <ele>1093.64</ele>
        <time>2017-01-17T14:12:10Z</time>
      </trkpt>
      <trkpt lat="42.94266" lon="0.27671">
        <ele>1092.2</ele>
        <time>2017-01-17T14:12:20Z</time>
      </trkpt>
      <trkpt lat="42.94273" lon="0.27679">
        <ele>1091.71</ele>
        <time>2017-01-17T14:12:29Z</time>
      </trkpt>
      <trkpt lat="42.9428" lon="0.27687">
        <ele>1089.79</ele>
        <time>2017-01-17T14:12:38Z</time>
      </trkpt>
      <trkpt lat="42.94288" lon="0.27694">
        <ele>1087.39</ele>
        <time>2017-01-17T14:12:48Z</time>
      </trkpt>
      <trkpt lat="42.94298" lon="0.27697">
        <ele>1084.99</ele>
        <time>2017-01-17T14:13:00Z</time>
      </trkpt>
      <trkpt lat="42.94304" lon="0.27705">
        <ele>1084.99</ele>
        <time>2017-01-17T14:13:10Z</time>
      </trkpt>
      <trkpt lat="42.94308" lon="0.27717">
        <ele>1084.02</ele>
        <time>2017-01-17T14:13:19Z</time>
      </trkpt>
      <trkpt lat="42.94312" lon="0.27728">
        <ele>1083.54</ele>
        <time>2017-01-17T14:13:29Z</time>
      </trkpt>
      <trkpt lat="42.94316" lon="0.2774">
        <ele>1083.54</ele>
        <time>2017-01-17T14:13:39Z</time>
      </trkpt>
      <trkpt lat="42.94321" lon="0.27751">
        <ele>1083.54</ele>
        <time>2017-01-17T14:13:49Z</time>
      </trkpt>
      <trkpt lat="42.94325" lon="0.27762">
        <ele>1083.06</ele>
        <time>2017-01-17T14:13:58Z</time>
      </trkpt>
      <trkpt lat="42.9433" lon="0.27773">
        <ele>1083.06</ele>
        <time>2017-01-17T14:14:09Z</time>
      </trkpt>
      <trkpt lat="42.94333" lon="0.27785">
        <ele>1083.54</ele>
        <time>2017-01-17T14:14:19Z</time>
      </trkpt>
      <trkpt lat="42.94335" lon="0.27798">
        <ele>1084.02</ele>
        <time>2017-01-17T14:14:30Z</time>
      </trkpt>
      <trkpt lat="42.94338" lon="0.27809">
        <ele>1084.99</ele>
        <time>2017-01-17T14:14:51Z</time>
      </trkpt>
      <trkpt lat="42.94329" lon="0.27813">
        <ele>1084.5</ele>
        <time>2017-01-17T14:15:07Z</time>
      </trkpt>
      <trkpt lat="42.94323" lon="0.27825">
        <ele>1084.5</ele>
        <time>2017-01-17T14:15:17Z</time>
      </trkpt>
      <trkpt lat="42.94317" lon="0.27835">
        <ele>1084.5</ele>
        <time>2017-01-17T14:15:26Z</time>
      </trkpt>
      <trkpt lat="42.94311" lon="0.27847">
        <ele>1085.95</ele>
        <time>2017-01-17T14:15:36Z</time>
      </trkpt>
      <trkpt lat="42.94306" lon="0.27858">
        <ele>1085.95</ele>
        <time>2017-01-17T14:15:46Z</time>
      </trkpt>
      <trkpt lat="42.94302" lon="0.27869">
        <ele>1086.91</ele>
        <time>2017-01-17T14:15:56Z</time>
      </trkpt>
      <trkpt lat="42.94295" lon="0.27879">
        <ele>1088.83</ele>
        <time>2017-01-17T14:16:07Z</time>
      </trkpt>
      <trkpt lat="42.94292" lon="0.27891">
        <ele>1089.79</ele>
        <time>2017-01-17T14:16:18Z</time>
      </trkpt>
      <trkpt lat="42.94286" lon="0.27903">
        <ele>1088.35</ele>
        <time>2017-01-17T14:16:28Z</time>
      </trkpt>
      <trkpt lat="42.94281" lon="0.27915">
        <ele>1088.35</ele>
        <time>2017-01-17T14:16:38Z</time>
      </trkpt>
      <trkpt lat="42.94274" lon="0.27925">
        <ele>1088.83</ele>
        <time>2017-01-17T14:16:48Z</time>
      </trkpt>
      <trkpt lat="42.94269" lon="0.27936">
        <ele>1088.83</ele>
        <time>2017-01-17T14:16:57Z</time>
      </trkpt>
      <trkpt lat="42.94263" lon="0.27947">
        <ele>1089.31</ele>
        <time>2017-01-17T14:17:06Z</time>
      </trkpt>
      <trkpt lat="42.94258" lon="0.27957">
        <ele>1089.31</ele>
        <time>2017-01-17T14:17:15Z</time>
      </trkpt>
      <trkpt lat="42.94251" lon="0.27964">
        <ele>1090.27</ele>
        <time>2017-01-17T14:17:25Z</time>
      </trkpt>
      <trkpt lat="42.94246" lon="0.27975">
        <ele>1091.71</ele>
        <time>2017-01-17T14:17:38Z</time>
      </trkpt>
      <trkpt lat="42.94242" lon="0.27987">
        <ele>1090.75</ele>
        <time>2017-01-17T14:17:51Z</time>
      </trkpt>
      <trkpt lat="42.94239" lon="0.27997">
        <ele>1091.23</ele>
        <time>2017-01-17T14:18:02Z</time>
      </trkpt>
      <trkpt lat="42.94234" lon="0.2801">
        <ele>1091.71</ele>
        <time>2017-01-17T14:18:14Z</time>
      </trkpt>
      <trkpt lat="42.94232" lon="0.28023">
        <ele>1091.71</ele>
        <time>2017-01-17T14:18:26Z</time>
      </trkpt>
      <trkpt lat="42.94233" lon="0.28036">
        <ele>1091.23</ele>
        <time>2017-01-17T14:18:35Z</time>
      </trkpt>
      <trkpt lat="42.94232" lon="0.28049">
        <ele>1091.23</ele>
        <time>2017-01-17T14:18:44Z</time>
      </trkpt>
      <trkpt lat="42.94232" lon="0.28062">
        <ele>1090.75</ele>
        <time>2017-01-17T14:18:54Z</time>
      </trkpt>
      <trkpt lat="42.94232" lon="0.28075">
        <ele>1090.75</ele>
        <time>2017-01-17T14:19:03Z</time>
      </trkpt>
      <trkpt lat="42.94233" lon="0.28089">
        <ele>1090.75</ele>
        <time>2017-01-17T14:19:12Z</time>
      </trkpt>
      <trkpt lat="42.94232" lon="0.28103">
        <ele>1091.23</ele>
        <time>2017-01-17T14:19:22Z</time>
      </trkpt>
      <trkpt lat="42.94233" lon="0.28116">
        <ele>1090.75</ele>
        <time>2017-01-17T14:19:31Z</time>
      </trkpt>
      <trkpt lat="42.94232" lon="0.2813">
        <ele>1090.75</ele>
        <time>2017-01-17T14:19:40Z</time>
      </trkpt>
      <trkpt lat="42.94231" lon="0.28145">
        <ele>1090.75</ele>
        <time>2017-01-17T14:19:49Z</time>
      </trkpt>
      <trkpt lat="42.94231" lon="0.28158">
        <ele>1090.27</ele>
        <time>2017-01-17T14:19:58Z</time>
      </trkpt>
      <trkpt lat="42.9423" lon="0.28172">
        <ele>1090.27</ele>
        <time>2017-01-17T14:20:07Z</time>
      </trkpt>
      <trkpt lat="42.9423" lon="0.28185">
        <ele>1090.27</ele>
        <time>2017-01-17T14:20:16Z</time>
      </trkpt>
      <trkpt lat="42.9423" lon="0.28199">
        <ele>1089.79</ele>
        <time>2017-01-17T14:20:25Z</time>
      </trkpt>
      <trkpt lat="42.94231" lon="0.28212">
        <ele>1090.27</ele>
        <time>2017-01-17T14:20:34Z</time>
      </trkpt>
      <trkpt lat="42.94237" lon="0.28223">
        <ele>1090.27</ele>
        <time>2017-01-17T14:20:42Z</time>
      </trkpt>
      <trkpt lat="42.94238" lon="0.28236">
        <ele>1090.75</ele>
        <time>2017-01-17T14:20:51Z</time>
      </trkpt>
      <trkpt lat="42.94235" lon="0.28249">
        <ele>1090.27</ele>
        <time>2017-01-17T14:21:00Z</time>
      </trkpt>
      <trkpt lat="42.94231" lon="0.28261">
        <ele>1090.75</ele>
        <time>2017-01-17T14:21:09Z</time>
      </trkpt>
      <trkpt lat="42.94228" lon="0.28273">
        <ele>1090.75</ele>
        <time>2017-01-17T14:21:18Z</time>
      </trkpt>
      <trkpt lat="42.94225" lon="0.28285">
        <ele>1090.27</ele>
        <time>2017-01-17T14:21:27Z</time>
      </trkpt>
      <trkpt lat="42.94224" lon="0.28297">
        <ele>1090.27</ele>
        <time>2017-01-17T14:21:37Z</time>
      </trkpt>
      <trkpt lat="42.9422" lon="0.2831">
        <ele>1090.75</ele>
        <time>2017-01-17T14:21:46Z</time>
      </trkpt>
      <trkpt lat="42.94216" lon="0.28323">
        <ele>1091.71</ele>
        <time>2017-01-17T14:21:56Z</time>
      </trkpt>
      <trkpt lat="42.94212" lon="0.28335">
        <ele>1091.71</ele>
        <time>2017-01-17T14:22:05Z</time>
      </trkpt>
      <trkpt lat="42.9421" lon="0.28347">
        <ele>1091.71</ele>
        <time>2017-01-17T14:22:14Z</time>
      </trkpt>
      <trkpt lat="42.94207" lon="0.28359">
        <ele>1091.71</ele>
        <time>2017-01-17T14:22:23Z</time>
      </trkpt>
      <trkpt lat="42.94204" lon="0.28372">
        <ele>1091.71</ele>
        <time>2017-01-17T14:22:33Z</time>
      </trkpt>
      <trkpt lat="42.94206" lon="0.28385">
        <ele>1091.71</ele>
        <time>2017-01-17T14:22:42Z</time>
      </trkpt>
      <trkpt lat="42.94213" lon="0.28395">
        <ele>1092.2</ele>
        <time>2017-01-17T14:22:51Z</time>
      </trkpt>
      <trkpt lat="42.94219" lon="0.28404">
        <ele>1092.68</ele>
        <time>2017-01-17T14:23:00Z</time>
      </trkpt>
      <trkpt lat="42.94224" lon="0.28415">
        <ele>1092.68</ele>
        <time>2017-01-17T14:23:09Z</time>
      </trkpt>
      <trkpt lat="42.94229" lon="0.28427">
        <ele>1091.71</ele>
        <time>2017-01-17T14:23:18Z</time>
      </trkpt>
      <trkpt lat="42.94234" lon="0.28439">
        <ele>1092.2</ele>
        <time>2017-01-17T14:23:27Z</time>
      </trkpt>
      <trkpt lat="42.9424" lon="0.28449">
        <ele>1093.16</ele>
        <time>2017-01-17T14:23:36Z</time>
      </trkpt>
      <trkpt lat="42.94244" lon="0.28461">
        <ele>1094.12</ele>
        <time>2017-01-17T14:23:46Z</time>
      </trkpt>
      <trkpt lat="42.94251" lon="0.28462">
        <ele>1093.16</ele>
        <time>2017-01-17T14:23:57Z</time>
      </trkpt>
      <trkpt lat="42.94259" lon="0.28454">
        <ele>1092.68</ele>
        <time>2017-01-17T14:24:06Z</time>
      </trkpt>
      <trkpt lat="42.94266" lon="0.28446">
        <ele>1092.2</ele>
        <time>2017-01-17T14:24:15Z</time>
      </trkpt>
      <trkpt lat="42.94272" lon="0.28435">
        <ele>1092.68</ele>
        <time>2017-01-17T14:24:24Z</time>
      </trkpt>
      <trkpt lat="42.94275" lon="0.28422">
        <ele>1092.68</ele>
        <time>2017-01-17T14:24:34Z</time>
      </trkpt>
      <trkpt lat="42.94278" lon="0.28407">
        <ele>1092.68</ele>
        <time>2017-01-17T14:24:43Z</time>
      </trkpt>
      <trkpt lat="42.94278" lon="0.28393">
        <ele>1093.16</ele>
        <time>2017-01-17T14:24:52Z</time>
      </trkpt>
      <trkpt lat="42.94278" lon="0.28379">
        <ele>1092.68</ele>
        <time>2017-01-17T14:25:00Z</time>
      </trkpt>
      <trkpt lat="42.94277" lon="0.28365">
        <ele>1091.71</ele>
        <time>2017-01-17T14:25:09Z</time>
      </trkpt>
      <trkpt lat="42.94277" lon="0.28351">
        <ele>1092.2</ele>
        <time>2017-01-17T14:25:18Z</time>
      </trkpt>
      <trkpt lat="42.94275" lon="0.28337">
        <ele>1090.27</ele>
        <time>2017-01-17T14:25:27Z</time>
      </trkpt>
      <trkpt lat="42.94269" lon="0.28326">
        <ele>1091.23</ele>
        <time>2017-01-17T14:25:36Z</time>
      </trkpt>
      <trkpt lat="42.94265" lon="0.28316">
        <ele>1090.27</ele>
        <time>2017-01-17T14:25:45Z</time>
      </trkpt>
      <trkpt lat="42.94263" lon="0.28315">
        <ele>1090.75</ele>
        <time>2017-01-17T14:26:21Z</time>
      </trkpt>
    </trkseg>
  </trk>
</gpx>